<?xml version="1.0" encoding="UTF-8" standalone="no" ?>
<gpx xmlns="http://www.topografix.com/GPX/1/1" xmlns:xsi="http://www.w3.org/2001/XMLSchema-instance" xsi:schemaLocation="http://www.topografix.com/GPX/1/1 http://www.topografix.com/GPX/1/1/gpx.xsd" version="1.1" creator="VisuGPX - https://www.visugpx.com">
  <metadata>
    <name>2019-05-13 11:59:57</name>
    <desc><![CDATA[

]]></desc>
  </metadata>
  <trk>
    <name><![CDATA[2019-05-13 11:59:57]]></name>
    <trkseg>
      <trkpt lat="39.11757" lon="-8.73349">
        <ele>8.79</ele>
        <time>2019-05-13T06:51:32Z</time>
      </trkpt>
      <trkpt lat="39.11758" lon="-8.73351">
        <ele>9.75</ele>
        <time>2019-05-13T06:51:42Z</time>
      </trkpt>
      <trkpt lat="39.11772" lon="-8.7335">
        <ele>8.31</ele>
        <time>2019-05-13T06:51:58Z</time>
      </trkpt>
      <trkpt lat="39.11782" lon="-8.7335">
        <ele>7.83</ele>
        <time>2019-05-13T06:52:14Z</time>
      </trkpt>
      <trkpt lat="39.11795" lon="-8.7335">
        <ele>8.31</ele>
        <time>2019-05-13T06:52:28Z</time>
      </trkpt>
      <trkpt lat="39.11811" lon="-8.73349">
        <ele>8.31</ele>
        <time>2019-05-13T06:52:44Z</time>
      </trkpt>
      <trkpt lat="39.11828" lon="-8.73348">
        <ele>8.79</ele>
        <time>2019-05-13T06:53:01Z</time>
      </trkpt>
      <trkpt lat="39.11846" lon="-8.73345">
        <ele>8.31</ele>
        <time>2019-05-13T06:53:17Z</time>
      </trkpt>
      <trkpt lat="39.11864" lon="-8.73344">
        <ele>8.31</ele>
        <time>2019-05-13T06:53:34Z</time>
      </trkpt>
      <trkpt lat="39.11886" lon="-8.73341">
        <ele>8.79</ele>
        <time>2019-05-13T06:53:52Z</time>
      </trkpt>
      <trkpt lat="39.11901" lon="-8.7334">
        <ele>8.79</ele>
        <time>2019-05-13T06:54:06Z</time>
      </trkpt>
      <trkpt lat="39.11912" lon="-8.73336">
        <ele>7.83</ele>
        <time>2019-05-13T06:54:16Z</time>
      </trkpt>
      <trkpt lat="39.11913" lon="-8.73334">
        <ele>8.31</ele>
        <time>2019-05-13T06:54:18Z</time>
      </trkpt>
      <trkpt lat="39.11917" lon="-8.73335">
        <ele>8.79</ele>
        <time>2019-05-13T06:54:36Z</time>
      </trkpt>
      <trkpt lat="39.11931" lon="-8.73328">
        <ele>8.31</ele>
        <time>2019-05-13T06:54:49Z</time>
      </trkpt>
      <trkpt lat="39.11941" lon="-8.73323">
        <ele>8.31</ele>
        <time>2019-05-13T06:55:03Z</time>
      </trkpt>
      <trkpt lat="39.11941" lon="-8.73326">
        <ele>8.79</ele>
        <time>2019-05-13T06:55:20Z</time>
      </trkpt>
      <trkpt lat="39.11944" lon="-8.73323">
        <ele>8.31</ele>
        <time>2019-05-13T06:55:23Z</time>
      </trkpt>
      <trkpt lat="39.11946" lon="-8.73319">
        <ele>8.31</ele>
        <time>2019-05-13T06:55:27Z</time>
      </trkpt>
      <trkpt lat="39.1195" lon="-8.73318">
        <ele>8.79</ele>
        <time>2019-05-13T06:55:36Z</time>
      </trkpt>
      <trkpt lat="39.11954" lon="-8.73315">
        <ele>9.27</ele>
        <time>2019-05-13T06:55:49Z</time>
      </trkpt>
      <trkpt lat="39.11968" lon="-8.73308">
        <ele>8.31</ele>
        <time>2019-05-13T06:56:02Z</time>
      </trkpt>
      <trkpt lat="39.11985" lon="-8.73299">
        <ele>8.79</ele>
        <time>2019-05-13T06:56:17Z</time>
      </trkpt>
      <trkpt lat="39.12004" lon="-8.7329">
        <ele>8.31</ele>
        <time>2019-05-13T06:56:34Z</time>
      </trkpt>
      <trkpt lat="39.12023" lon="-8.73283">
        <ele>9.27</ele>
        <time>2019-05-13T06:56:51Z</time>
      </trkpt>
      <trkpt lat="39.1204" lon="-8.73274">
        <ele>8.79</ele>
        <time>2019-05-13T06:57:06Z</time>
      </trkpt>
      <trkpt lat="39.12057" lon="-8.73266">
        <ele>7.83</ele>
        <time>2019-05-13T06:57:21Z</time>
      </trkpt>
      <trkpt lat="39.12079" lon="-8.73252">
        <ele>8.31</ele>
        <time>2019-05-13T06:57:41Z</time>
      </trkpt>
      <trkpt lat="39.12094" lon="-8.73243">
        <ele>8.79</ele>
        <time>2019-05-13T06:57:55Z</time>
      </trkpt>
      <trkpt lat="39.12111" lon="-8.73232">
        <ele>8.79</ele>
        <time>2019-05-13T06:58:11Z</time>
      </trkpt>
      <trkpt lat="39.12126" lon="-8.73221">
        <ele>8.31</ele>
        <time>2019-05-13T06:58:26Z</time>
      </trkpt>
      <trkpt lat="39.12133" lon="-8.73216">
        <ele>8.31</ele>
        <time>2019-05-13T06:58:33Z</time>
      </trkpt>
      <trkpt lat="39.12149" lon="-8.73207">
        <ele>8.31</ele>
        <time>2019-05-13T06:58:48Z</time>
      </trkpt>
      <trkpt lat="39.12167" lon="-8.73194">
        <ele>8.79</ele>
        <time>2019-05-13T06:59:05Z</time>
      </trkpt>
      <trkpt lat="39.1217" lon="-8.73191">
        <ele>8.31</ele>
        <time>2019-05-13T06:59:09Z</time>
      </trkpt>
      <trkpt lat="39.12175" lon="-8.73188">
        <ele>8.79</ele>
        <time>2019-05-13T06:59:13Z</time>
      </trkpt>
      <trkpt lat="39.12194" lon="-8.73174">
        <ele>9.27</ele>
        <time>2019-05-13T06:59:32Z</time>
      </trkpt>
      <trkpt lat="39.12211" lon="-8.73162">
        <ele>8.31</ele>
        <time>2019-05-13T06:59:48Z</time>
      </trkpt>
      <trkpt lat="39.12221" lon="-8.73156">
        <ele>8.31</ele>
        <time>2019-05-13T07:00:00Z</time>
      </trkpt>
      <trkpt lat="39.12238" lon="-8.73144">
        <ele>8.79</ele>
        <time>2019-05-13T07:00:16Z</time>
      </trkpt>
      <trkpt lat="39.12256" lon="-8.73128">
        <ele>8.79</ele>
        <time>2019-05-13T07:00:34Z</time>
      </trkpt>
      <trkpt lat="39.12274" lon="-8.73113">
        <ele>9.27</ele>
        <time>2019-05-13T07:00:52Z</time>
      </trkpt>
      <trkpt lat="39.12291" lon="-8.73098">
        <ele>8.79</ele>
        <time>2019-05-13T07:01:09Z</time>
      </trkpt>
      <trkpt lat="39.1231" lon="-8.73083">
        <ele>9.27</ele>
        <time>2019-05-13T07:01:27Z</time>
      </trkpt>
      <trkpt lat="39.12326" lon="-8.73068">
        <ele>8.79</ele>
        <time>2019-05-13T07:01:43Z</time>
      </trkpt>
      <trkpt lat="39.12346" lon="-8.73049">
        <ele>8.79</ele>
        <time>2019-05-13T07:02:03Z</time>
      </trkpt>
      <trkpt lat="39.12361" lon="-8.73035">
        <ele>8.79</ele>
        <time>2019-05-13T07:02:18Z</time>
      </trkpt>
      <trkpt lat="39.1237" lon="-8.73026">
        <ele>8.79</ele>
        <time>2019-05-13T07:02:30Z</time>
      </trkpt>
      <trkpt lat="39.1238" lon="-8.73014">
        <ele>8.79</ele>
        <time>2019-05-13T07:02:42Z</time>
      </trkpt>
      <trkpt lat="39.12394" lon="-8.72998">
        <ele>8.31</ele>
        <time>2019-05-13T07:02:57Z</time>
      </trkpt>
      <trkpt lat="39.12408" lon="-8.72981">
        <ele>8.31</ele>
        <time>2019-05-13T07:03:13Z</time>
      </trkpt>
      <trkpt lat="39.12424" lon="-8.72962">
        <ele>8.79</ele>
        <time>2019-05-13T07:03:30Z</time>
      </trkpt>
      <trkpt lat="39.12436" lon="-8.72948">
        <ele>8.79</ele>
        <time>2019-05-13T07:03:46Z</time>
      </trkpt>
      <trkpt lat="39.1245" lon="-8.72935">
        <ele>9.27</ele>
        <time>2019-05-13T07:04:02Z</time>
      </trkpt>
      <trkpt lat="39.12467" lon="-8.72919">
        <ele>8.31</ele>
        <time>2019-05-13T07:04:20Z</time>
      </trkpt>
      <trkpt lat="39.12485" lon="-8.72903">
        <ele>8.79</ele>
        <time>2019-05-13T07:04:38Z</time>
      </trkpt>
      <trkpt lat="39.12501" lon="-8.72892">
        <ele>8.31</ele>
        <time>2019-05-13T07:04:53Z</time>
      </trkpt>
      <trkpt lat="39.1252" lon="-8.72883">
        <ele>8.31</ele>
        <time>2019-05-13T07:05:08Z</time>
      </trkpt>
      <trkpt lat="39.1254" lon="-8.72876">
        <ele>8.31</ele>
        <time>2019-05-13T07:05:25Z</time>
      </trkpt>
      <trkpt lat="39.12557" lon="-8.72872">
        <ele>8.79</ele>
        <time>2019-05-13T07:05:39Z</time>
      </trkpt>
      <trkpt lat="39.12568" lon="-8.7287">
        <ele>8.79</ele>
        <time>2019-05-13T07:05:51Z</time>
      </trkpt>
      <trkpt lat="39.12584" lon="-8.72865">
        <ele>8.79</ele>
        <time>2019-05-13T07:06:04Z</time>
      </trkpt>
      <trkpt lat="39.12604" lon="-8.72853">
        <ele>9.27</ele>
        <time>2019-05-13T07:06:22Z</time>
      </trkpt>
      <trkpt lat="39.12624" lon="-8.72841">
        <ele>8.31</ele>
        <time>2019-05-13T07:06:40Z</time>
      </trkpt>
      <trkpt lat="39.12635" lon="-8.72836">
        <ele>9.27</ele>
        <time>2019-05-13T07:06:55Z</time>
      </trkpt>
      <trkpt lat="39.12648" lon="-8.72828">
        <ele>9.75</ele>
        <time>2019-05-13T07:07:09Z</time>
      </trkpt>
      <trkpt lat="39.12663" lon="-8.72818">
        <ele>9.75</ele>
        <time>2019-05-13T07:07:23Z</time>
      </trkpt>
      <trkpt lat="39.12679" lon="-8.72809">
        <ele>10.23</ele>
        <time>2019-05-13T07:07:38Z</time>
      </trkpt>
      <trkpt lat="39.12699" lon="-8.72799">
        <ele>10.23</ele>
        <time>2019-05-13T07:07:55Z</time>
      </trkpt>
      <trkpt lat="39.12709" lon="-8.72794">
        <ele>10.23</ele>
        <time>2019-05-13T07:08:04Z</time>
      </trkpt>
      <trkpt lat="39.12727" lon="-8.72783">
        <ele>10.71</ele>
        <time>2019-05-13T07:08:21Z</time>
      </trkpt>
      <trkpt lat="39.12728" lon="-8.72782">
        <ele>11.67</ele>
        <time>2019-05-13T07:08:25Z</time>
      </trkpt>
      <trkpt lat="39.12747" lon="-8.7277">
        <ele>10.71</ele>
        <time>2019-05-13T07:08:42Z</time>
      </trkpt>
      <trkpt lat="39.12764" lon="-8.72762">
        <ele>11.19</ele>
        <time>2019-05-13T07:08:57Z</time>
      </trkpt>
      <trkpt lat="39.12781" lon="-8.72761">
        <ele>9.75</ele>
        <time>2019-05-13T07:09:12Z</time>
      </trkpt>
      <trkpt lat="39.128" lon="-8.72762">
        <ele>11.19</ele>
        <time>2019-05-13T07:09:27Z</time>
      </trkpt>
      <trkpt lat="39.12818" lon="-8.72761">
        <ele>10.23</ele>
        <time>2019-05-13T07:09:42Z</time>
      </trkpt>
      <trkpt lat="39.12836" lon="-8.72758">
        <ele>9.75</ele>
        <time>2019-05-13T07:09:57Z</time>
      </trkpt>
      <trkpt lat="39.12856" lon="-8.72752">
        <ele>10.23</ele>
        <time>2019-05-13T07:10:14Z</time>
      </trkpt>
      <trkpt lat="39.12861" lon="-8.72751">
        <ele>9.75</ele>
        <time>2019-05-13T07:10:18Z</time>
      </trkpt>
      <trkpt lat="39.12868" lon="-8.72749">
        <ele>10.71</ele>
        <time>2019-05-13T07:10:28Z</time>
      </trkpt>
      <trkpt lat="39.12891" lon="-8.72745">
        <ele>10.71</ele>
        <time>2019-05-13T07:10:47Z</time>
      </trkpt>
      <trkpt lat="39.12906" lon="-8.72742">
        <ele>9.75</ele>
        <time>2019-05-13T07:10:59Z</time>
      </trkpt>
      <trkpt lat="39.12924" lon="-8.72738">
        <ele>10.23</ele>
        <time>2019-05-13T07:11:13Z</time>
      </trkpt>
      <trkpt lat="39.12946" lon="-8.72733">
        <ele>10.23</ele>
        <time>2019-05-13T07:11:31Z</time>
      </trkpt>
      <trkpt lat="39.12958" lon="-8.72731">
        <ele>9.27</ele>
        <time>2019-05-13T07:11:40Z</time>
      </trkpt>
      <trkpt lat="39.12978" lon="-8.72729">
        <ele>9.75</ele>
        <time>2019-05-13T07:11:56Z</time>
      </trkpt>
      <trkpt lat="39.12998" lon="-8.72726">
        <ele>10.23</ele>
        <time>2019-05-13T07:12:12Z</time>
      </trkpt>
      <trkpt lat="39.13017" lon="-8.72723">
        <ele>10.23</ele>
        <time>2019-05-13T07:12:28Z</time>
      </trkpt>
      <trkpt lat="39.13033" lon="-8.72722">
        <ele>9.75</ele>
        <time>2019-05-13T07:12:43Z</time>
      </trkpt>
      <trkpt lat="39.13042" lon="-8.72721">
        <ele>10.23</ele>
        <time>2019-05-13T07:12:52Z</time>
      </trkpt>
      <trkpt lat="39.13044" lon="-8.72721">
        <ele>10.23</ele>
        <time>2019-05-13T07:12:54Z</time>
      </trkpt>
      <trkpt lat="39.1306" lon="-8.72721">
        <ele>10.71</ele>
        <time>2019-05-13T07:13:10Z</time>
      </trkpt>
      <trkpt lat="39.13081" lon="-8.72722">
        <ele>10.23</ele>
        <time>2019-05-13T07:13:28Z</time>
      </trkpt>
      <trkpt lat="39.13104" lon="-8.72723">
        <ele>10.71</ele>
        <time>2019-05-13T07:13:46Z</time>
      </trkpt>
      <trkpt lat="39.13122" lon="-8.72726">
        <ele>10.23</ele>
        <time>2019-05-13T07:14:01Z</time>
      </trkpt>
      <trkpt lat="39.13142" lon="-8.7273">
        <ele>9.75</ele>
        <time>2019-05-13T07:14:18Z</time>
      </trkpt>
      <trkpt lat="39.13159" lon="-8.72734">
        <ele>9.75</ele>
        <time>2019-05-13T07:14:33Z</time>
      </trkpt>
      <trkpt lat="39.13179" lon="-8.7274">
        <ele>9.75</ele>
        <time>2019-05-13T07:14:50Z</time>
      </trkpt>
      <trkpt lat="39.13195" lon="-8.72746">
        <ele>9.75</ele>
        <time>2019-05-13T07:15:04Z</time>
      </trkpt>
      <trkpt lat="39.13215" lon="-8.7275">
        <ele>9.75</ele>
        <time>2019-05-13T07:15:21Z</time>
      </trkpt>
      <trkpt lat="39.13236" lon="-8.72754">
        <ele>10.23</ele>
        <time>2019-05-13T07:15:38Z</time>
      </trkpt>
      <trkpt lat="39.13256" lon="-8.72758">
        <ele>9.75</ele>
        <time>2019-05-13T07:15:55Z</time>
      </trkpt>
      <trkpt lat="39.13277" lon="-8.72763">
        <ele>10.23</ele>
        <time>2019-05-13T07:16:12Z</time>
      </trkpt>
      <trkpt lat="39.13297" lon="-8.72766">
        <ele>9.27</ele>
        <time>2019-05-13T07:16:29Z</time>
      </trkpt>
      <trkpt lat="39.13319" lon="-8.7277">
        <ele>10.23</ele>
        <time>2019-05-13T07:16:47Z</time>
      </trkpt>
      <trkpt lat="39.13336" lon="-8.72773">
        <ele>9.75</ele>
        <time>2019-05-13T07:17:02Z</time>
      </trkpt>
      <trkpt lat="39.13356" lon="-8.72777">
        <ele>9.75</ele>
        <time>2019-05-13T07:17:19Z</time>
      </trkpt>
      <trkpt lat="39.13376" lon="-8.72784">
        <ele>10.23</ele>
        <time>2019-05-13T07:17:36Z</time>
      </trkpt>
      <trkpt lat="39.13393" lon="-8.72792">
        <ele>10.23</ele>
        <time>2019-05-13T07:17:52Z</time>
      </trkpt>
      <trkpt lat="39.13411" lon="-8.72801">
        <ele>10.23</ele>
        <time>2019-05-13T07:18:07Z</time>
      </trkpt>
      <trkpt lat="39.13428" lon="-8.72812">
        <ele>9.75</ele>
        <time>2019-05-13T07:18:23Z</time>
      </trkpt>
      <trkpt lat="39.13444" lon="-8.72822">
        <ele>9.27</ele>
        <time>2019-05-13T07:18:37Z</time>
      </trkpt>
      <trkpt lat="39.13464" lon="-8.72831">
        <ele>8.79</ele>
        <time>2019-05-13T07:18:54Z</time>
      </trkpt>
      <trkpt lat="39.13482" lon="-8.72841">
        <ele>9.27</ele>
        <time>2019-05-13T07:19:10Z</time>
      </trkpt>
      <trkpt lat="39.13493" lon="-8.72846">
        <ele>9.27</ele>
        <time>2019-05-13T07:19:19Z</time>
      </trkpt>
      <trkpt lat="39.135" lon="-8.7285">
        <ele>8.31</ele>
        <time>2019-05-13T07:19:25Z</time>
      </trkpt>
      <trkpt lat="39.13519" lon="-8.7286">
        <ele>9.27</ele>
        <time>2019-05-13T07:19:42Z</time>
      </trkpt>
      <trkpt lat="39.13538" lon="-8.72868">
        <ele>9.75</ele>
        <time>2019-05-13T07:19:58Z</time>
      </trkpt>
      <trkpt lat="39.13557" lon="-8.72875">
        <ele>8.79</ele>
        <time>2019-05-13T07:20:14Z</time>
      </trkpt>
      <trkpt lat="39.13575" lon="-8.72882">
        <ele>9.27</ele>
        <time>2019-05-13T07:20:29Z</time>
      </trkpt>
      <trkpt lat="39.13595" lon="-8.7289">
        <ele>9.27</ele>
        <time>2019-05-13T07:20:46Z</time>
      </trkpt>
      <trkpt lat="39.13598" lon="-8.7289">
        <ele>9.75</ele>
        <time>2019-05-13T07:20:51Z</time>
      </trkpt>
      <trkpt lat="39.13614" lon="-8.72894">
        <ele>9.27</ele>
        <time>2019-05-13T07:21:06Z</time>
      </trkpt>
      <trkpt lat="39.13628" lon="-8.72898">
        <ele>9.27</ele>
        <time>2019-05-13T07:21:18Z</time>
      </trkpt>
      <trkpt lat="39.13644" lon="-8.729">
        <ele>9.75</ele>
        <time>2019-05-13T07:21:32Z</time>
      </trkpt>
      <trkpt lat="39.13666" lon="-8.72898">
        <ele>8.79</ele>
        <time>2019-05-13T07:21:49Z</time>
      </trkpt>
      <trkpt lat="39.13688" lon="-8.72893">
        <ele>8.79</ele>
        <time>2019-05-13T07:22:07Z</time>
      </trkpt>
      <trkpt lat="39.13707" lon="-8.72889">
        <ele>9.75</ele>
        <time>2019-05-13T07:22:24Z</time>
      </trkpt>
      <trkpt lat="39.13726" lon="-8.72886">
        <ele>9.27</ele>
        <time>2019-05-13T07:22:41Z</time>
      </trkpt>
      <trkpt lat="39.1375" lon="-8.7288">
        <ele>9.27</ele>
        <time>2019-05-13T07:23:00Z</time>
      </trkpt>
      <trkpt lat="39.1377" lon="-8.72874">
        <ele>9.75</ele>
        <time>2019-05-13T07:23:16Z</time>
      </trkpt>
      <trkpt lat="39.13789" lon="-8.72869">
        <ele>9.27</ele>
        <time>2019-05-13T07:23:33Z</time>
      </trkpt>
      <trkpt lat="39.13809" lon="-8.72863">
        <ele>9.75</ele>
        <time>2019-05-13T07:23:49Z</time>
      </trkpt>
      <trkpt lat="39.13829" lon="-8.72856">
        <ele>9.27</ele>
        <time>2019-05-13T07:24:06Z</time>
      </trkpt>
      <trkpt lat="39.1384" lon="-8.72853">
        <ele>10.23</ele>
        <time>2019-05-13T07:24:15Z</time>
      </trkpt>
      <trkpt lat="39.1386" lon="-8.72849">
        <ele>9.27</ele>
        <time>2019-05-13T07:24:31Z</time>
      </trkpt>
      <trkpt lat="39.1388" lon="-8.72845">
        <ele>8.79</ele>
        <time>2019-05-13T07:24:47Z</time>
      </trkpt>
      <trkpt lat="39.13898" lon="-8.72841">
        <ele>8.79</ele>
        <time>2019-05-13T07:25:02Z</time>
      </trkpt>
      <trkpt lat="39.13917" lon="-8.72839">
        <ele>8.79</ele>
        <time>2019-05-13T07:25:18Z</time>
      </trkpt>
      <trkpt lat="39.13926" lon="-8.72837">
        <ele>9.27</ele>
        <time>2019-05-13T07:25:29Z</time>
      </trkpt>
      <trkpt lat="39.13945" lon="-8.72834">
        <ele>9.27</ele>
        <time>2019-05-13T07:25:45Z</time>
      </trkpt>
      <trkpt lat="39.13964" lon="-8.7283">
        <ele>9.27</ele>
        <time>2019-05-13T07:26:01Z</time>
      </trkpt>
      <trkpt lat="39.13984" lon="-8.72824">
        <ele>9.27</ele>
        <time>2019-05-13T07:26:17Z</time>
      </trkpt>
      <trkpt lat="39.14005" lon="-8.72813">
        <ele>9.75</ele>
        <time>2019-05-13T07:26:35Z</time>
      </trkpt>
      <trkpt lat="39.14018" lon="-8.72803">
        <ele>9.27</ele>
        <time>2019-05-13T07:26:49Z</time>
      </trkpt>
      <trkpt lat="39.14035" lon="-8.72793">
        <ele>8.79</ele>
        <time>2019-05-13T07:27:04Z</time>
      </trkpt>
      <trkpt lat="39.14053" lon="-8.72781">
        <ele>9.27</ele>
        <time>2019-05-13T07:27:20Z</time>
      </trkpt>
      <trkpt lat="39.14072" lon="-8.7277">
        <ele>8.79</ele>
        <time>2019-05-13T07:27:36Z</time>
      </trkpt>
      <trkpt lat="39.14088" lon="-8.72757">
        <ele>8.31</ele>
        <time>2019-05-13T07:27:51Z</time>
      </trkpt>
      <trkpt lat="39.14095" lon="-8.72752">
        <ele>8.79</ele>
        <time>2019-05-13T07:27:58Z</time>
      </trkpt>
      <trkpt lat="39.14109" lon="-8.72738">
        <ele>9.75</ele>
        <time>2019-05-13T07:28:12Z</time>
      </trkpt>
      <trkpt lat="39.14125" lon="-8.72726">
        <ele>8.31</ele>
        <time>2019-05-13T07:28:26Z</time>
      </trkpt>
      <trkpt lat="39.14141" lon="-8.72714">
        <ele>9.27</ele>
        <time>2019-05-13T07:28:42Z</time>
      </trkpt>
      <trkpt lat="39.14158" lon="-8.72703">
        <ele>8.79</ele>
        <time>2019-05-13T07:28:58Z</time>
      </trkpt>
      <trkpt lat="39.14175" lon="-8.72691">
        <ele>9.27</ele>
        <time>2019-05-13T07:29:14Z</time>
      </trkpt>
      <trkpt lat="39.14185" lon="-8.72691">
        <ele>9.27</ele>
        <time>2019-05-13T07:29:29Z</time>
      </trkpt>
      <trkpt lat="39.14203" lon="-8.72676">
        <ele>9.75</ele>
        <time>2019-05-13T07:29:47Z</time>
      </trkpt>
      <trkpt lat="39.14222" lon="-8.72669">
        <ele>9.75</ele>
        <time>2019-05-13T07:30:03Z</time>
      </trkpt>
      <trkpt lat="39.14243" lon="-8.72664">
        <ele>9.27</ele>
        <time>2019-05-13T07:30:20Z</time>
      </trkpt>
      <trkpt lat="39.14264" lon="-8.72657">
        <ele>8.31</ele>
        <time>2019-05-13T07:30:37Z</time>
      </trkpt>
      <trkpt lat="39.14282" lon="-8.7265">
        <ele>8.79</ele>
        <time>2019-05-13T07:30:52Z</time>
      </trkpt>
      <trkpt lat="39.14297" lon="-8.72643">
        <ele>8.79</ele>
        <time>2019-05-13T07:31:06Z</time>
      </trkpt>
      <trkpt lat="39.14312" lon="-8.72635">
        <ele>9.75</ele>
        <time>2019-05-13T07:31:19Z</time>
      </trkpt>
      <trkpt lat="39.14315" lon="-8.72637">
        <ele>9.75</ele>
        <time>2019-05-13T07:31:33Z</time>
      </trkpt>
      <trkpt lat="39.14314" lon="-8.72636">
        <ele>9.27</ele>
        <time>2019-05-13T07:31:46Z</time>
      </trkpt>
      <trkpt lat="39.1432" lon="-8.7263">
        <ele>9.27</ele>
        <time>2019-05-13T07:31:52Z</time>
      </trkpt>
      <trkpt lat="39.14325" lon="-8.72629">
        <ele>9.27</ele>
        <time>2019-05-13T07:31:56Z</time>
      </trkpt>
      <trkpt lat="39.14327" lon="-8.72627">
        <ele>9.75</ele>
        <time>2019-05-13T07:32:00Z</time>
      </trkpt>
      <trkpt lat="39.14346" lon="-8.72617">
        <ele>9.75</ele>
        <time>2019-05-13T07:32:17Z</time>
      </trkpt>
      <trkpt lat="39.14369" lon="-8.72607">
        <ele>8.79</ele>
        <time>2019-05-13T07:32:35Z</time>
      </trkpt>
      <trkpt lat="39.14388" lon="-8.72598">
        <ele>9.75</ele>
        <time>2019-05-13T07:32:51Z</time>
      </trkpt>
      <trkpt lat="39.14409" lon="-8.72587">
        <ele>9.75</ele>
        <time>2019-05-13T07:33:10Z</time>
      </trkpt>
      <trkpt lat="39.14431" lon="-8.72578">
        <ele>8.79</ele>
        <time>2019-05-13T07:33:28Z</time>
      </trkpt>
      <trkpt lat="39.14448" lon="-8.72573">
        <ele>9.27</ele>
        <time>2019-05-13T07:33:42Z</time>
      </trkpt>
      <trkpt lat="39.14465" lon="-8.72567">
        <ele>8.79</ele>
        <time>2019-05-13T07:33:57Z</time>
      </trkpt>
      <trkpt lat="39.14482" lon="-8.72558">
        <ele>9.27</ele>
        <time>2019-05-13T07:34:12Z</time>
      </trkpt>
      <trkpt lat="39.14502" lon="-8.72547">
        <ele>9.27</ele>
        <time>2019-05-13T07:34:29Z</time>
      </trkpt>
      <trkpt lat="39.14523" lon="-8.72535">
        <ele>8.79</ele>
        <time>2019-05-13T07:34:47Z</time>
      </trkpt>
      <trkpt lat="39.14542" lon="-8.72526">
        <ele>8.79</ele>
        <time>2019-05-13T07:35:03Z</time>
      </trkpt>
      <trkpt lat="39.14555" lon="-8.7252">
        <ele>8.79</ele>
        <time>2019-05-13T07:35:16Z</time>
      </trkpt>
      <trkpt lat="39.1457" lon="-8.72513">
        <ele>8.79</ele>
        <time>2019-05-13T07:35:30Z</time>
      </trkpt>
      <trkpt lat="39.14582" lon="-8.72508">
        <ele>8.31</ele>
        <time>2019-05-13T07:35:40Z</time>
      </trkpt>
      <trkpt lat="39.14584" lon="-8.72509">
        <ele>9.27</ele>
        <time>2019-05-13T07:35:45Z</time>
      </trkpt>
      <trkpt lat="39.14585" lon="-8.72508">
        <ele>8.79</ele>
        <time>2019-05-13T07:35:47Z</time>
      </trkpt>
      <trkpt lat="39.14589" lon="-8.72504">
        <ele>9.27</ele>
        <time>2019-05-13T07:35:51Z</time>
      </trkpt>
      <trkpt lat="39.14596" lon="-8.72503">
        <ele>9.75</ele>
        <time>2019-05-13T07:36:05Z</time>
      </trkpt>
      <trkpt lat="39.146" lon="-8.72499">
        <ele>9.27</ele>
        <time>2019-05-13T07:36:30Z</time>
      </trkpt>
      <trkpt lat="39.1462" lon="-8.72492">
        <ele>9.27</ele>
        <time>2019-05-13T07:36:47Z</time>
      </trkpt>
      <trkpt lat="39.14622" lon="-8.72498">
        <ele>9.27</ele>
        <time>2019-05-13T07:37:02Z</time>
      </trkpt>
      <trkpt lat="39.14627" lon="-8.72495">
        <ele>9.27</ele>
        <time>2019-05-13T07:37:15Z</time>
      </trkpt>
      <trkpt lat="39.14628" lon="-8.72493">
        <ele>8.79</ele>
        <time>2019-05-13T07:37:17Z</time>
      </trkpt>
      <trkpt lat="39.14632" lon="-8.72489">
        <ele>9.27</ele>
        <time>2019-05-13T07:37:21Z</time>
      </trkpt>
      <trkpt lat="39.14648" lon="-8.72479">
        <ele>9.75</ele>
        <time>2019-05-13T07:37:36Z</time>
      </trkpt>
      <trkpt lat="39.14665" lon="-8.72474">
        <ele>9.75</ele>
        <time>2019-05-13T07:37:50Z</time>
      </trkpt>
      <trkpt lat="39.14683" lon="-8.72471">
        <ele>9.75</ele>
        <time>2019-05-13T07:38:06Z</time>
      </trkpt>
      <trkpt lat="39.14705" lon="-8.72463">
        <ele>9.75</ele>
        <time>2019-05-13T07:38:24Z</time>
      </trkpt>
      <trkpt lat="39.14723" lon="-8.7246">
        <ele>9.75</ele>
        <time>2019-05-13T07:38:39Z</time>
      </trkpt>
      <trkpt lat="39.14735" lon="-8.72456">
        <ele>9.75</ele>
        <time>2019-05-13T07:38:49Z</time>
      </trkpt>
      <trkpt lat="39.14753" lon="-8.72451">
        <ele>9.75</ele>
        <time>2019-05-13T07:39:04Z</time>
      </trkpt>
      <trkpt lat="39.14764" lon="-8.72445">
        <ele>10.23</ele>
        <time>2019-05-13T07:39:14Z</time>
      </trkpt>
      <trkpt lat="39.14781" lon="-8.72437">
        <ele>9.27</ele>
        <time>2019-05-13T07:39:29Z</time>
      </trkpt>
      <trkpt lat="39.14798" lon="-8.72429">
        <ele>9.75</ele>
        <time>2019-05-13T07:39:44Z</time>
      </trkpt>
      <trkpt lat="39.14815" lon="-8.72421">
        <ele>9.75</ele>
        <time>2019-05-13T07:39:59Z</time>
      </trkpt>
      <trkpt lat="39.1484" lon="-8.72411">
        <ele>10.23</ele>
        <time>2019-05-13T07:40:18Z</time>
      </trkpt>
      <trkpt lat="39.14861" lon="-8.72401">
        <ele>10.23</ele>
        <time>2019-05-13T07:40:35Z</time>
      </trkpt>
      <trkpt lat="39.14875" lon="-8.72394">
        <ele>10.23</ele>
        <time>2019-05-13T07:40:51Z</time>
      </trkpt>
      <trkpt lat="39.14895" lon="-8.72385">
        <ele>9.75</ele>
        <time>2019-05-13T07:41:07Z</time>
      </trkpt>
      <trkpt lat="39.14911" lon="-8.72381">
        <ele>9.75</ele>
        <time>2019-05-13T07:41:21Z</time>
      </trkpt>
      <trkpt lat="39.14927" lon="-8.72375">
        <ele>9.27</ele>
        <time>2019-05-13T07:41:35Z</time>
      </trkpt>
      <trkpt lat="39.14935" lon="-8.72372">
        <ele>9.27</ele>
        <time>2019-05-13T07:41:43Z</time>
      </trkpt>
      <trkpt lat="39.14951" lon="-8.72362">
        <ele>9.75</ele>
        <time>2019-05-13T07:41:58Z</time>
      </trkpt>
      <trkpt lat="39.14969" lon="-8.72353">
        <ele>10.71</ele>
        <time>2019-05-13T07:42:13Z</time>
      </trkpt>
      <trkpt lat="39.14972" lon="-8.72352">
        <ele>10.23</ele>
        <time>2019-05-13T07:42:15Z</time>
      </trkpt>
      <trkpt lat="39.14977" lon="-8.72348">
        <ele>10.23</ele>
        <time>2019-05-13T07:42:20Z</time>
      </trkpt>
      <trkpt lat="39.14996" lon="-8.72336">
        <ele>10.71</ele>
        <time>2019-05-13T07:42:36Z</time>
      </trkpt>
      <trkpt lat="39.15006" lon="-8.72328">
        <ele>11.19</ele>
        <time>2019-05-13T07:42:51Z</time>
      </trkpt>
      <trkpt lat="39.15019" lon="-8.72318">
        <ele>11.19</ele>
        <time>2019-05-13T07:43:04Z</time>
      </trkpt>
      <trkpt lat="39.15024" lon="-8.72316">
        <ele>10.71</ele>
        <time>2019-05-13T07:43:08Z</time>
      </trkpt>
      <trkpt lat="39.1504" lon="-8.72307">
        <ele>10.71</ele>
        <time>2019-05-13T07:43:22Z</time>
      </trkpt>
      <trkpt lat="39.15056" lon="-8.72298">
        <ele>10.71</ele>
        <time>2019-05-13T07:43:37Z</time>
      </trkpt>
      <trkpt lat="39.1507" lon="-8.72291">
        <ele>10.71</ele>
        <time>2019-05-13T07:43:49Z</time>
      </trkpt>
      <trkpt lat="39.15089" lon="-8.7228">
        <ele>10.23</ele>
        <time>2019-05-13T07:44:06Z</time>
      </trkpt>
      <trkpt lat="39.15109" lon="-8.72269">
        <ele>10.23</ele>
        <time>2019-05-13T07:44:24Z</time>
      </trkpt>
      <trkpt lat="39.15126" lon="-8.72258">
        <ele>10.23</ele>
        <time>2019-05-13T07:44:39Z</time>
      </trkpt>
      <trkpt lat="39.15144" lon="-8.72248">
        <ele>11.19</ele>
        <time>2019-05-13T07:44:54Z</time>
      </trkpt>
      <trkpt lat="39.15161" lon="-8.7224">
        <ele>10.23</ele>
        <time>2019-05-13T07:45:08Z</time>
      </trkpt>
      <trkpt lat="39.15171" lon="-8.72235">
        <ele>10.71</ele>
        <time>2019-05-13T07:45:21Z</time>
      </trkpt>
      <trkpt lat="39.15177" lon="-8.72232">
        <ele>10.71</ele>
        <time>2019-05-13T07:45:40Z</time>
      </trkpt>
      <trkpt lat="39.15195" lon="-8.72223">
        <ele>11.19</ele>
        <time>2019-05-13T07:45:55Z</time>
      </trkpt>
      <trkpt lat="39.15214" lon="-8.72213">
        <ele>11.19</ele>
        <time>2019-05-13T07:46:11Z</time>
      </trkpt>
      <trkpt lat="39.15227" lon="-8.72206">
        <ele>11.19</ele>
        <time>2019-05-13T07:46:24Z</time>
      </trkpt>
      <trkpt lat="39.15249" lon="-8.72196">
        <ele>11.19</ele>
        <time>2019-05-13T07:46:42Z</time>
      </trkpt>
      <trkpt lat="39.15269" lon="-8.72186">
        <ele>11.67</ele>
        <time>2019-05-13T07:47:00Z</time>
      </trkpt>
      <trkpt lat="39.15274" lon="-8.72184">
        <ele>11.67</ele>
        <time>2019-05-13T07:47:05Z</time>
      </trkpt>
      <trkpt lat="39.15293" lon="-8.72176">
        <ele>11.19</ele>
        <time>2019-05-13T07:47:22Z</time>
      </trkpt>
      <trkpt lat="39.15313" lon="-8.72169">
        <ele>11.67</ele>
        <time>2019-05-13T07:47:38Z</time>
      </trkpt>
      <trkpt lat="39.15331" lon="-8.72161">
        <ele>11.19</ele>
        <time>2019-05-13T07:47:54Z</time>
      </trkpt>
      <trkpt lat="39.15346" lon="-8.72156">
        <ele>11.19</ele>
        <time>2019-05-13T07:48:11Z</time>
      </trkpt>
      <trkpt lat="39.1536" lon="-8.72151">
        <ele>10.71</ele>
        <time>2019-05-13T07:48:24Z</time>
      </trkpt>
      <trkpt lat="39.15367" lon="-8.72149">
        <ele>11.19</ele>
        <time>2019-05-13T07:48:33Z</time>
      </trkpt>
      <trkpt lat="39.15384" lon="-8.72139">
        <ele>10.71</ele>
        <time>2019-05-13T07:48:48Z</time>
      </trkpt>
      <trkpt lat="39.15392" lon="-8.72137">
        <ele>10.71</ele>
        <time>2019-05-13T07:49:00Z</time>
      </trkpt>
      <trkpt lat="39.15394" lon="-8.72137">
        <ele>10.71</ele>
        <time>2019-05-13T07:49:02Z</time>
      </trkpt>
      <trkpt lat="39.15412" lon="-8.72129">
        <ele>11.19</ele>
        <time>2019-05-13T07:49:18Z</time>
      </trkpt>
      <trkpt lat="39.1543" lon="-8.72123">
        <ele>10.23</ele>
        <time>2019-05-13T07:49:33Z</time>
      </trkpt>
      <trkpt lat="39.15448" lon="-8.72118">
        <ele>10.71</ele>
        <time>2019-05-13T07:49:47Z</time>
      </trkpt>
      <trkpt lat="39.15472" lon="-8.72109">
        <ele>11.19</ele>
        <time>2019-05-13T07:50:06Z</time>
      </trkpt>
      <trkpt lat="39.15488" lon="-8.72103">
        <ele>10.23</ele>
        <time>2019-05-13T07:50:20Z</time>
      </trkpt>
      <trkpt lat="39.15506" lon="-8.72095">
        <ele>10.71</ele>
        <time>2019-05-13T07:50:35Z</time>
      </trkpt>
      <trkpt lat="39.15523" lon="-8.72087">
        <ele>10.71</ele>
        <time>2019-05-13T07:50:49Z</time>
      </trkpt>
      <trkpt lat="39.15541" lon="-8.7208">
        <ele>10.23</ele>
        <time>2019-05-13T07:51:04Z</time>
      </trkpt>
      <trkpt lat="39.15547" lon="-8.72075">
        <ele>11.19</ele>
        <time>2019-05-13T07:51:15Z</time>
      </trkpt>
      <trkpt lat="39.15565" lon="-8.72069">
        <ele>11.19</ele>
        <time>2019-05-13T07:51:30Z</time>
      </trkpt>
      <trkpt lat="39.15582" lon="-8.72062">
        <ele>11.67</ele>
        <time>2019-05-13T07:51:45Z</time>
      </trkpt>
      <trkpt lat="39.15599" lon="-8.72055">
        <ele>11.19</ele>
        <time>2019-05-13T07:52:00Z</time>
      </trkpt>
      <trkpt lat="39.15617" lon="-8.7205">
        <ele>12.15</ele>
        <time>2019-05-13T07:52:15Z</time>
      </trkpt>
      <trkpt lat="39.15635" lon="-8.72044">
        <ele>11.67</ele>
        <time>2019-05-13T07:52:30Z</time>
      </trkpt>
      <trkpt lat="39.15655" lon="-8.7204">
        <ele>11.19</ele>
        <time>2019-05-13T07:52:46Z</time>
      </trkpt>
      <trkpt lat="39.15672" lon="-8.72035">
        <ele>11.67</ele>
        <time>2019-05-13T07:53:00Z</time>
      </trkpt>
      <trkpt lat="39.15687" lon="-8.72027">
        <ele>11.19</ele>
        <time>2019-05-13T07:53:13Z</time>
      </trkpt>
      <trkpt lat="39.15704" lon="-8.72018">
        <ele>10.71</ele>
        <time>2019-05-13T07:53:28Z</time>
      </trkpt>
      <trkpt lat="39.15719" lon="-8.72003">
        <ele>10.23</ele>
        <time>2019-05-13T07:53:46Z</time>
      </trkpt>
      <trkpt lat="39.15731" lon="-8.71998">
        <ele>11.19</ele>
        <time>2019-05-13T07:54:02Z</time>
      </trkpt>
      <trkpt lat="39.15748" lon="-8.71983">
        <ele>11.19</ele>
        <time>2019-05-13T07:54:19Z</time>
      </trkpt>
      <trkpt lat="39.15762" lon="-8.71974">
        <ele>10.71</ele>
        <time>2019-05-13T07:54:33Z</time>
      </trkpt>
      <trkpt lat="39.1578" lon="-8.71964">
        <ele>10.71</ele>
        <time>2019-05-13T07:54:48Z</time>
      </trkpt>
      <trkpt lat="39.15787" lon="-8.71959">
        <ele>10.23</ele>
        <time>2019-05-13T07:54:55Z</time>
      </trkpt>
      <trkpt lat="39.15789" lon="-8.71955">
        <ele>10.71</ele>
        <time>2019-05-13T07:54:59Z</time>
      </trkpt>
      <trkpt lat="39.15806" lon="-8.71942">
        <ele>11.19</ele>
        <time>2019-05-13T07:55:15Z</time>
      </trkpt>
      <trkpt lat="39.15816" lon="-8.71934">
        <ele>11.19</ele>
        <time>2019-05-13T07:55:25Z</time>
      </trkpt>
      <trkpt lat="39.15832" lon="-8.7192">
        <ele>10.23</ele>
        <time>2019-05-13T07:55:42Z</time>
      </trkpt>
      <trkpt lat="39.15845" lon="-8.71906">
        <ele>11.19</ele>
        <time>2019-05-13T07:55:57Z</time>
      </trkpt>
      <trkpt lat="39.15861" lon="-8.71892">
        <ele>10.71</ele>
        <time>2019-05-13T07:56:13Z</time>
      </trkpt>
      <trkpt lat="39.15866" lon="-8.71888">
        <ele>10.71</ele>
        <time>2019-05-13T07:56:18Z</time>
      </trkpt>
      <trkpt lat="39.1587" lon="-8.71885">
        <ele>10.71</ele>
        <time>2019-05-13T07:56:21Z</time>
      </trkpt>
      <trkpt lat="39.15887" lon="-8.7187">
        <ele>10.23</ele>
        <time>2019-05-13T07:56:38Z</time>
      </trkpt>
      <trkpt lat="39.15906" lon="-8.71852">
        <ele>10.23</ele>
        <time>2019-05-13T07:56:56Z</time>
      </trkpt>
      <trkpt lat="39.15907" lon="-8.71851">
        <ele>10.23</ele>
        <time>2019-05-13T07:56:57Z</time>
      </trkpt>
      <trkpt lat="39.15909" lon="-8.7185">
        <ele>10.23</ele>
        <time>2019-05-13T07:56:59Z</time>
      </trkpt>
      <trkpt lat="39.15919" lon="-8.7184">
        <ele>10.23</ele>
        <time>2019-05-13T07:57:09Z</time>
      </trkpt>
      <trkpt lat="39.15924" lon="-8.71834">
        <ele>10.23</ele>
        <time>2019-05-13T07:57:15Z</time>
      </trkpt>
      <trkpt lat="39.15936" lon="-8.71821">
        <ele>10.71</ele>
        <time>2019-05-13T07:57:29Z</time>
      </trkpt>
      <trkpt lat="39.15941" lon="-8.71815">
        <ele>9.75</ele>
        <time>2019-05-13T07:57:34Z</time>
      </trkpt>
      <trkpt lat="39.1595" lon="-8.71807">
        <ele>10.23</ele>
        <time>2019-05-13T07:57:43Z</time>
      </trkpt>
      <trkpt lat="39.15954" lon="-8.71803">
        <ele>10.23</ele>
        <time>2019-05-13T07:57:47Z</time>
      </trkpt>
      <trkpt lat="39.15956" lon="-8.71801">
        <ele>10.23</ele>
        <time>2019-05-13T07:57:49Z</time>
      </trkpt>
      <trkpt lat="39.15961" lon="-8.71797">
        <ele>10.23</ele>
        <time>2019-05-13T07:57:54Z</time>
      </trkpt>
      <trkpt lat="39.15974" lon="-8.71782">
        <ele>10.23</ele>
        <time>2019-05-13T07:58:08Z</time>
      </trkpt>
      <trkpt lat="39.15987" lon="-8.71768">
        <ele>10.23</ele>
        <time>2019-05-13T07:58:22Z</time>
      </trkpt>
      <trkpt lat="39.15984" lon="-8.71768">
        <ele>10.23</ele>
        <time>2019-05-13T07:58:33Z</time>
      </trkpt>
      <trkpt lat="39.15985" lon="-8.71768">
        <ele>10.23</ele>
        <time>2019-05-13T07:58:51Z</time>
      </trkpt>
      <trkpt lat="39.15984" lon="-8.71768">
        <ele>10.23</ele>
        <time>2019-05-13T07:59:00Z</time>
      </trkpt>
      <trkpt lat="39.15987" lon="-8.71765">
        <ele>10.23</ele>
        <time>2019-05-13T07:59:03Z</time>
      </trkpt>
      <trkpt lat="39.15989" lon="-8.7176">
        <ele>9.75</ele>
        <time>2019-05-13T07:59:16Z</time>
      </trkpt>
      <trkpt lat="39.16006" lon="-8.71745">
        <ele>9.75</ele>
        <time>2019-05-13T07:59:32Z</time>
      </trkpt>
      <trkpt lat="39.16007" lon="-8.71742">
        <ele>9.75</ele>
        <time>2019-05-13T07:59:42Z</time>
      </trkpt>
      <trkpt lat="39.1602" lon="-8.7173">
        <ele>10.23</ele>
        <time>2019-05-13T07:59:56Z</time>
      </trkpt>
      <trkpt lat="39.16031" lon="-8.71719">
        <ele>10.23</ele>
        <time>2019-05-13T08:00:11Z</time>
      </trkpt>
      <trkpt lat="39.16034" lon="-8.71716">
        <ele>10.23</ele>
        <time>2019-05-13T08:00:14Z</time>
      </trkpt>
      <trkpt lat="39.16038" lon="-8.71712">
        <ele>10.23</ele>
        <time>2019-05-13T08:00:18Z</time>
      </trkpt>
      <trkpt lat="39.16051" lon="-8.717">
        <ele>10.71</ele>
        <time>2019-05-13T08:00:32Z</time>
      </trkpt>
      <trkpt lat="39.16056" lon="-8.71695">
        <ele>10.23</ele>
        <time>2019-05-13T08:00:37Z</time>
      </trkpt>
      <trkpt lat="39.16064" lon="-8.71685">
        <ele>10.23</ele>
        <time>2019-05-13T08:00:46Z</time>
      </trkpt>
      <trkpt lat="39.1607" lon="-8.7168">
        <ele>10.23</ele>
        <time>2019-05-13T08:00:51Z</time>
      </trkpt>
      <trkpt lat="39.16072" lon="-8.71679">
        <ele>9.75</ele>
        <time>2019-05-13T08:00:53Z</time>
      </trkpt>
      <trkpt lat="39.16086" lon="-8.71664">
        <ele>9.75</ele>
        <time>2019-05-13T08:01:08Z</time>
      </trkpt>
      <trkpt lat="39.16093" lon="-8.71657">
        <ele>10.23</ele>
        <time>2019-05-13T08:01:15Z</time>
      </trkpt>
      <trkpt lat="39.16103" lon="-8.71649">
        <ele>10.23</ele>
        <time>2019-05-13T08:01:25Z</time>
      </trkpt>
      <trkpt lat="39.16108" lon="-8.71643">
        <ele>10.23</ele>
        <time>2019-05-13T08:01:31Z</time>
      </trkpt>
      <trkpt lat="39.16122" lon="-8.71629">
        <ele>9.75</ele>
        <time>2019-05-13T08:01:45Z</time>
      </trkpt>
      <trkpt lat="39.16136" lon="-8.71614">
        <ele>10.23</ele>
        <time>2019-05-13T08:02:00Z</time>
      </trkpt>
      <trkpt lat="39.1614" lon="-8.71611">
        <ele>10.23</ele>
        <time>2019-05-13T08:02:03Z</time>
      </trkpt>
      <trkpt lat="39.1615" lon="-8.71603">
        <ele>9.75</ele>
        <time>2019-05-13T08:02:12Z</time>
      </trkpt>
      <trkpt lat="39.16158" lon="-8.71595">
        <ele>10.23</ele>
        <time>2019-05-13T08:02:21Z</time>
      </trkpt>
      <trkpt lat="39.1616" lon="-8.71593">
        <ele>9.75</ele>
        <time>2019-05-13T08:02:23Z</time>
      </trkpt>
      <trkpt lat="39.16164" lon="-8.71588">
        <ele>9.75</ele>
        <time>2019-05-13T08:02:27Z</time>
      </trkpt>
      <trkpt lat="39.16171" lon="-8.71581">
        <ele>10.23</ele>
        <time>2019-05-13T08:02:34Z</time>
      </trkpt>
      <trkpt lat="39.16182" lon="-8.71568">
        <ele>10.23</ele>
        <time>2019-05-13T08:02:46Z</time>
      </trkpt>
      <trkpt lat="39.16189" lon="-8.71561">
        <ele>10.23</ele>
        <time>2019-05-13T08:02:53Z</time>
      </trkpt>
      <trkpt lat="39.16193" lon="-8.71556">
        <ele>10.23</ele>
        <time>2019-05-13T08:03:06Z</time>
      </trkpt>
      <trkpt lat="39.16196" lon="-8.71551">
        <ele>10.23</ele>
        <time>2019-05-13T08:03:11Z</time>
      </trkpt>
      <trkpt lat="39.16208" lon="-8.7154">
        <ele>9.75</ele>
        <time>2019-05-13T08:03:23Z</time>
      </trkpt>
      <trkpt lat="39.16213" lon="-8.71536">
        <ele>9.75</ele>
        <time>2019-05-13T08:03:28Z</time>
      </trkpt>
      <trkpt lat="39.16219" lon="-8.71528">
        <ele>9.75</ele>
        <time>2019-05-13T08:03:35Z</time>
      </trkpt>
      <trkpt lat="39.16223" lon="-8.71524">
        <ele>10.71</ele>
        <time>2019-05-13T08:03:39Z</time>
      </trkpt>
      <trkpt lat="39.16227" lon="-8.71519">
        <ele>10.71</ele>
        <time>2019-05-13T08:03:44Z</time>
      </trkpt>
      <trkpt lat="39.16238" lon="-8.71507">
        <ele>11.19</ele>
        <time>2019-05-13T08:03:57Z</time>
      </trkpt>
      <trkpt lat="39.1625" lon="-8.71495">
        <ele>11.19</ele>
        <time>2019-05-13T08:04:10Z</time>
      </trkpt>
      <trkpt lat="39.16252" lon="-8.71492">
        <ele>11.19</ele>
        <time>2019-05-13T08:04:13Z</time>
      </trkpt>
      <trkpt lat="39.16257" lon="-8.71488">
        <ele>10.71</ele>
        <time>2019-05-13T08:04:18Z</time>
      </trkpt>
      <trkpt lat="39.16264" lon="-8.71481">
        <ele>10.71</ele>
        <time>2019-05-13T08:04:25Z</time>
      </trkpt>
      <trkpt lat="39.16279" lon="-8.71466">
        <ele>10.71</ele>
        <time>2019-05-13T08:04:41Z</time>
      </trkpt>
      <trkpt lat="39.16293" lon="-8.71451">
        <ele>10.71</ele>
        <time>2019-05-13T08:04:55Z</time>
      </trkpt>
      <trkpt lat="39.16304" lon="-8.7144">
        <ele>9.75</ele>
        <time>2019-05-13T08:05:07Z</time>
      </trkpt>
      <trkpt lat="39.16318" lon="-8.71429">
        <ele>10.23</ele>
        <time>2019-05-13T08:05:20Z</time>
      </trkpt>
      <trkpt lat="39.16319" lon="-8.71428">
        <ele>10.23</ele>
        <time>2019-05-13T08:05:21Z</time>
      </trkpt>
      <trkpt lat="39.16326" lon="-8.7142">
        <ele>10.23</ele>
        <time>2019-05-13T08:05:29Z</time>
      </trkpt>
      <trkpt lat="39.16334" lon="-8.71414">
        <ele>10.23</ele>
        <time>2019-05-13T08:05:38Z</time>
      </trkpt>
      <trkpt lat="39.16338" lon="-8.71409">
        <ele>10.23</ele>
        <time>2019-05-13T08:05:42Z</time>
      </trkpt>
      <trkpt lat="39.1635" lon="-8.71397">
        <ele>10.23</ele>
        <time>2019-05-13T08:05:54Z</time>
      </trkpt>
      <trkpt lat="39.16359" lon="-8.71386">
        <ele>9.75</ele>
        <time>2019-05-13T08:06:04Z</time>
      </trkpt>
      <trkpt lat="39.16366" lon="-8.71379">
        <ele>9.75</ele>
        <time>2019-05-13T08:06:11Z</time>
      </trkpt>
      <trkpt lat="39.16379" lon="-8.71365">
        <ele>9.75</ele>
        <time>2019-05-13T08:06:24Z</time>
      </trkpt>
      <trkpt lat="39.16383" lon="-8.71362">
        <ele>9.75</ele>
        <time>2019-05-13T08:06:27Z</time>
      </trkpt>
      <trkpt lat="39.16394" lon="-8.71351">
        <ele>9.75</ele>
        <time>2019-05-13T08:06:41Z</time>
      </trkpt>
      <trkpt lat="39.16397" lon="-8.71347">
        <ele>9.75</ele>
        <time>2019-05-13T08:06:56Z</time>
      </trkpt>
      <trkpt lat="39.16406" lon="-8.71337">
        <ele>10.23</ele>
        <time>2019-05-13T08:07:13Z</time>
      </trkpt>
      <trkpt lat="39.16408" lon="-8.71336">
        <ele>9.27</ele>
        <time>2019-05-13T08:07:32Z</time>
      </trkpt>
      <trkpt lat="39.16406" lon="-8.71334">
        <ele>9.27</ele>
        <time>2019-05-13T08:07:50Z</time>
      </trkpt>
      <trkpt lat="39.16406" lon="-8.71332">
        <ele>9.27</ele>
        <time>2019-05-13T08:08:12Z</time>
      </trkpt>
      <trkpt lat="39.16406" lon="-8.71332">
        <ele>9.75</ele>
        <time>2019-05-13T08:08:32Z</time>
      </trkpt>
      <trkpt lat="39.16407" lon="-8.71333">
        <ele>10.23</ele>
        <time>2019-05-13T08:08:48Z</time>
      </trkpt>
      <trkpt lat="39.16409" lon="-8.71331">
        <ele>10.23</ele>
        <time>2019-05-13T08:09:01Z</time>
      </trkpt>
      <trkpt lat="39.16419" lon="-8.71326">
        <ele>8.31</ele>
        <time>2019-05-13T08:09:19Z</time>
      </trkpt>
      <trkpt lat="39.16433" lon="-8.71316">
        <ele>9.75</ele>
        <time>2019-05-13T08:09:34Z</time>
      </trkpt>
      <trkpt lat="39.16439" lon="-8.71312">
        <ele>9.27</ele>
        <time>2019-05-13T08:09:40Z</time>
      </trkpt>
      <trkpt lat="39.16442" lon="-8.71312">
        <ele>9.27</ele>
        <time>2019-05-13T08:09:42Z</time>
      </trkpt>
      <trkpt lat="39.16445" lon="-8.71307">
        <ele>9.75</ele>
        <time>2019-05-13T08:09:46Z</time>
      </trkpt>
      <trkpt lat="39.16452" lon="-8.713">
        <ele>9.27</ele>
        <time>2019-05-13T08:09:53Z</time>
      </trkpt>
      <trkpt lat="39.16456" lon="-8.71296">
        <ele>9.27</ele>
        <time>2019-05-13T08:09:57Z</time>
      </trkpt>
      <trkpt lat="39.16458" lon="-8.71295">
        <ele>9.75</ele>
        <time>2019-05-13T08:09:59Z</time>
      </trkpt>
      <trkpt lat="39.16474" lon="-8.71277">
        <ele>9.27</ele>
        <time>2019-05-13T08:10:15Z</time>
      </trkpt>
      <trkpt lat="39.16474" lon="-8.71275">
        <ele>9.27</ele>
        <time>2019-05-13T08:10:16Z</time>
      </trkpt>
      <trkpt lat="39.16489" lon="-8.71264">
        <ele>9.27</ele>
        <time>2019-05-13T08:10:30Z</time>
      </trkpt>
      <trkpt lat="39.16491" lon="-8.71262">
        <ele>9.27</ele>
        <time>2019-05-13T08:10:32Z</time>
      </trkpt>
      <trkpt lat="39.16497" lon="-8.71255">
        <ele>9.27</ele>
        <time>2019-05-13T08:10:39Z</time>
      </trkpt>
      <trkpt lat="39.16511" lon="-8.71242">
        <ele>8.79</ele>
        <time>2019-05-13T08:10:52Z</time>
      </trkpt>
      <trkpt lat="39.16527" lon="-8.71231">
        <ele>8.79</ele>
        <time>2019-05-13T08:11:06Z</time>
      </trkpt>
      <trkpt lat="39.16539" lon="-8.71216">
        <ele>9.27</ele>
        <time>2019-05-13T08:11:19Z</time>
      </trkpt>
      <trkpt lat="39.1654" lon="-8.71215">
        <ele>8.79</ele>
        <time>2019-05-13T08:11:20Z</time>
      </trkpt>
      <trkpt lat="39.16542" lon="-8.71214">
        <ele>8.79</ele>
        <time>2019-05-13T08:11:22Z</time>
      </trkpt>
      <trkpt lat="39.16557" lon="-8.71198">
        <ele>8.79</ele>
        <time>2019-05-13T08:11:37Z</time>
      </trkpt>
      <trkpt lat="39.16558" lon="-8.71197">
        <ele>9.27</ele>
        <time>2019-05-13T08:11:38Z</time>
      </trkpt>
      <trkpt lat="39.16572" lon="-8.71181">
        <ele>9.27</ele>
        <time>2019-05-13T08:11:53Z</time>
      </trkpt>
      <trkpt lat="39.16576" lon="-8.71176">
        <ele>9.27</ele>
        <time>2019-05-13T08:12:06Z</time>
      </trkpt>
      <trkpt lat="39.1659" lon="-8.71162">
        <ele>9.27</ele>
        <time>2019-05-13T08:12:21Z</time>
      </trkpt>
      <trkpt lat="39.16605" lon="-8.71146">
        <ele>9.75</ele>
        <time>2019-05-13T08:12:37Z</time>
      </trkpt>
      <trkpt lat="39.16621" lon="-8.7113">
        <ele>8.79</ele>
        <time>2019-05-13T08:12:53Z</time>
      </trkpt>
      <trkpt lat="39.16637" lon="-8.71116">
        <ele>8.79</ele>
        <time>2019-05-13T08:13:08Z</time>
      </trkpt>
      <trkpt lat="39.16643" lon="-8.71111">
        <ele>8.31</ele>
        <time>2019-05-13T08:13:14Z</time>
      </trkpt>
      <trkpt lat="39.16653" lon="-8.711">
        <ele>9.27</ele>
        <time>2019-05-13T08:13:29Z</time>
      </trkpt>
      <trkpt lat="39.16663" lon="-8.71091">
        <ele>8.79</ele>
        <time>2019-05-13T08:13:38Z</time>
      </trkpt>
      <trkpt lat="39.16672" lon="-8.71083">
        <ele>8.79</ele>
        <time>2019-05-13T08:13:47Z</time>
      </trkpt>
      <trkpt lat="39.16677" lon="-8.71078">
        <ele>8.79</ele>
        <time>2019-05-13T08:13:52Z</time>
      </trkpt>
      <trkpt lat="39.16689" lon="-8.71068">
        <ele>9.27</ele>
        <time>2019-05-13T08:14:06Z</time>
      </trkpt>
      <trkpt lat="39.16699" lon="-8.71058">
        <ele>8.31</ele>
        <time>2019-05-13T08:14:16Z</time>
      </trkpt>
      <trkpt lat="39.16712" lon="-8.71047">
        <ele>8.79</ele>
        <time>2019-05-13T08:14:29Z</time>
      </trkpt>
      <trkpt lat="39.16728" lon="-8.71032">
        <ele>8.79</ele>
        <time>2019-05-13T08:14:45Z</time>
      </trkpt>
      <trkpt lat="39.16744" lon="-8.71018">
        <ele>9.27</ele>
        <time>2019-05-13T08:15:01Z</time>
      </trkpt>
      <trkpt lat="39.16757" lon="-8.71004">
        <ele>8.79</ele>
        <time>2019-05-13T08:15:16Z</time>
      </trkpt>
      <trkpt lat="39.16767" lon="-8.70994">
        <ele>8.31</ele>
        <time>2019-05-13T08:15:26Z</time>
      </trkpt>
      <trkpt lat="39.16783" lon="-8.7098">
        <ele>8.79</ele>
        <time>2019-05-13T08:15:41Z</time>
      </trkpt>
      <trkpt lat="39.16798" lon="-8.70965">
        <ele>9.27</ele>
        <time>2019-05-13T08:15:56Z</time>
      </trkpt>
      <trkpt lat="39.16814" lon="-8.70951">
        <ele>9.27</ele>
        <time>2019-05-13T08:16:11Z</time>
      </trkpt>
      <trkpt lat="39.16826" lon="-8.7094">
        <ele>8.79</ele>
        <time>2019-05-13T08:16:23Z</time>
      </trkpt>
      <trkpt lat="39.1684" lon="-8.70926">
        <ele>9.75</ele>
        <time>2019-05-13T08:16:38Z</time>
      </trkpt>
      <trkpt lat="39.16854" lon="-8.70914">
        <ele>9.27</ele>
        <time>2019-05-13T08:16:52Z</time>
      </trkpt>
      <trkpt lat="39.1686" lon="-8.70908">
        <ele>8.79</ele>
        <time>2019-05-13T08:16:58Z</time>
      </trkpt>
      <trkpt lat="39.16874" lon="-8.70896">
        <ele>9.27</ele>
        <time>2019-05-13T08:17:11Z</time>
      </trkpt>
      <trkpt lat="39.16886" lon="-8.70884">
        <ele>9.75</ele>
        <time>2019-05-13T08:17:23Z</time>
      </trkpt>
      <trkpt lat="39.16895" lon="-8.70876">
        <ele>9.27</ele>
        <time>2019-05-13T08:17:32Z</time>
      </trkpt>
      <trkpt lat="39.16909" lon="-8.70862">
        <ele>9.27</ele>
        <time>2019-05-13T08:17:47Z</time>
      </trkpt>
      <trkpt lat="39.16923" lon="-8.70848">
        <ele>9.75</ele>
        <time>2019-05-13T08:18:02Z</time>
      </trkpt>
      <trkpt lat="39.1694" lon="-8.70834">
        <ele>8.79</ele>
        <time>2019-05-13T08:18:18Z</time>
      </trkpt>
      <trkpt lat="39.1695" lon="-8.70823">
        <ele>9.27</ele>
        <time>2019-05-13T08:18:34Z</time>
      </trkpt>
      <trkpt lat="39.16952" lon="-8.70822">
        <ele>8.31</ele>
        <time>2019-05-13T08:18:57Z</time>
      </trkpt>
      <trkpt lat="39.16966" lon="-8.7081">
        <ele>9.27</ele>
        <time>2019-05-13T08:19:11Z</time>
      </trkpt>
      <trkpt lat="39.16981" lon="-8.70795">
        <ele>8.31</ele>
        <time>2019-05-13T08:19:26Z</time>
      </trkpt>
      <trkpt lat="39.16998" lon="-8.70779">
        <ele>8.79</ele>
        <time>2019-05-13T08:19:43Z</time>
      </trkpt>
      <trkpt lat="39.17012" lon="-8.70765">
        <ele>8.79</ele>
        <time>2019-05-13T08:19:58Z</time>
      </trkpt>
      <trkpt lat="39.17029" lon="-8.70749">
        <ele>8.79</ele>
        <time>2019-05-13T08:20:14Z</time>
      </trkpt>
      <trkpt lat="39.17042" lon="-8.70736">
        <ele>8.31</ele>
        <time>2019-05-13T08:20:29Z</time>
      </trkpt>
      <trkpt lat="39.17047" lon="-8.70732">
        <ele>8.31</ele>
        <time>2019-05-13T08:20:34Z</time>
      </trkpt>
      <trkpt lat="39.17063" lon="-8.7072">
        <ele>8.79</ele>
        <time>2019-05-13T08:20:49Z</time>
      </trkpt>
      <trkpt lat="39.17078" lon="-8.70705">
        <ele>8.31</ele>
        <time>2019-05-13T08:21:05Z</time>
      </trkpt>
      <trkpt lat="39.17093" lon="-8.70693">
        <ele>7.83</ele>
        <time>2019-05-13T08:21:18Z</time>
      </trkpt>
      <trkpt lat="39.17107" lon="-8.70679">
        <ele>7.83</ele>
        <time>2019-05-13T08:21:33Z</time>
      </trkpt>
      <trkpt lat="39.17126" lon="-8.7066">
        <ele>9.27</ele>
        <time>2019-05-13T08:21:53Z</time>
      </trkpt>
      <trkpt lat="39.17142" lon="-8.70645">
        <ele>8.31</ele>
        <time>2019-05-13T08:22:09Z</time>
      </trkpt>
      <trkpt lat="39.1716" lon="-8.70629">
        <ele>9.27</ele>
        <time>2019-05-13T08:22:27Z</time>
      </trkpt>
      <trkpt lat="39.17178" lon="-8.70613">
        <ele>9.75</ele>
        <time>2019-05-13T08:22:44Z</time>
      </trkpt>
      <trkpt lat="39.17189" lon="-8.70604">
        <ele>9.27</ele>
        <time>2019-05-13T08:23:01Z</time>
      </trkpt>
      <trkpt lat="39.17202" lon="-8.70591">
        <ele>9.75</ele>
        <time>2019-05-13T08:23:16Z</time>
      </trkpt>
      <trkpt lat="39.17215" lon="-8.70574">
        <ele>9.75</ele>
        <time>2019-05-13T08:23:32Z</time>
      </trkpt>
      <trkpt lat="39.1723" lon="-8.70556">
        <ele>9.27</ele>
        <time>2019-05-13T08:23:47Z</time>
      </trkpt>
      <trkpt lat="39.17243" lon="-8.70539">
        <ele>9.75</ele>
        <time>2019-05-13T08:24:03Z</time>
      </trkpt>
      <trkpt lat="39.17259" lon="-8.70521">
        <ele>9.75</ele>
        <time>2019-05-13T08:24:20Z</time>
      </trkpt>
      <trkpt lat="39.17275" lon="-8.70502">
        <ele>9.75</ele>
        <time>2019-05-13T08:24:37Z</time>
      </trkpt>
      <trkpt lat="39.17292" lon="-8.70483">
        <ele>10.71</ele>
        <time>2019-05-13T08:24:55Z</time>
      </trkpt>
      <trkpt lat="39.17305" lon="-8.70466">
        <ele>10.71</ele>
        <time>2019-05-13T08:25:10Z</time>
      </trkpt>
      <trkpt lat="39.17308" lon="-8.70463">
        <ele>9.75</ele>
        <time>2019-05-13T08:25:13Z</time>
      </trkpt>
      <trkpt lat="39.17311" lon="-8.70458">
        <ele>9.27</ele>
        <time>2019-05-13T08:25:17Z</time>
      </trkpt>
      <trkpt lat="39.17318" lon="-8.7045">
        <ele>9.75</ele>
        <time>2019-05-13T08:25:24Z</time>
      </trkpt>
      <trkpt lat="39.17322" lon="-8.70442">
        <ele>8.79</ele>
        <time>2019-05-13T08:25:30Z</time>
      </trkpt>
      <trkpt lat="39.17323" lon="-8.70441">
        <ele>8.79</ele>
        <time>2019-05-13T08:25:31Z</time>
      </trkpt>
      <trkpt lat="39.17325" lon="-8.70439">
        <ele>9.27</ele>
        <time>2019-05-13T08:25:33Z</time>
      </trkpt>
      <trkpt lat="39.17343" lon="-8.70427">
        <ele>8.31</ele>
        <time>2019-05-13T08:25:49Z</time>
      </trkpt>
      <trkpt lat="39.17347" lon="-8.70421">
        <ele>9.27</ele>
        <time>2019-05-13T08:26:03Z</time>
      </trkpt>
      <trkpt lat="39.17346" lon="-8.70424">
        <ele>9.75</ele>
        <time>2019-05-13T08:26:24Z</time>
      </trkpt>
      <trkpt lat="39.17346" lon="-8.70425">
        <ele>9.75</ele>
        <time>2019-05-13T08:26:26Z</time>
      </trkpt>
      <trkpt lat="39.17353" lon="-8.70437">
        <ele>9.27</ele>
        <time>2019-05-13T08:26:39Z</time>
      </trkpt>
      <trkpt lat="39.17368" lon="-8.70453">
        <ele>8.79</ele>
        <time>2019-05-13T08:26:56Z</time>
      </trkpt>
      <trkpt lat="39.17385" lon="-8.70461">
        <ele>9.27</ele>
        <time>2019-05-13T08:27:12Z</time>
      </trkpt>
      <trkpt lat="39.17403" lon="-8.70465">
        <ele>9.27</ele>
        <time>2019-05-13T08:27:27Z</time>
      </trkpt>
      <trkpt lat="39.17422" lon="-8.70467">
        <ele>9.75</ele>
        <time>2019-05-13T08:27:42Z</time>
      </trkpt>
      <trkpt lat="39.1743" lon="-8.7047">
        <ele>9.27</ele>
        <time>2019-05-13T08:27:59Z</time>
      </trkpt>
      <trkpt lat="39.1744" lon="-8.7047">
        <ele>9.27</ele>
        <time>2019-05-13T08:28:12Z</time>
      </trkpt>
      <trkpt lat="39.17458" lon="-8.70472">
        <ele>9.27</ele>
        <time>2019-05-13T08:28:27Z</time>
      </trkpt>
      <trkpt lat="39.17479" lon="-8.70475">
        <ele>9.27</ele>
        <time>2019-05-13T08:28:44Z</time>
      </trkpt>
      <trkpt lat="39.17496" lon="-8.70477">
        <ele>9.75</ele>
        <time>2019-05-13T08:28:59Z</time>
      </trkpt>
      <trkpt lat="39.17514" lon="-8.70478">
        <ele>9.75</ele>
        <time>2019-05-13T08:29:15Z</time>
      </trkpt>
      <trkpt lat="39.17536" lon="-8.70482">
        <ele>9.75</ele>
        <time>2019-05-13T08:29:33Z</time>
      </trkpt>
      <trkpt lat="39.17556" lon="-8.70487">
        <ele>10.23</ele>
        <time>2019-05-13T08:29:49Z</time>
      </trkpt>
      <trkpt lat="39.17571" lon="-8.70486">
        <ele>10.23</ele>
        <time>2019-05-13T08:30:02Z</time>
      </trkpt>
      <trkpt lat="39.17583" lon="-8.70489">
        <ele>9.27</ele>
        <time>2019-05-13T08:30:15Z</time>
      </trkpt>
      <trkpt lat="39.17604" lon="-8.70493">
        <ele>9.27</ele>
        <time>2019-05-13T08:30:32Z</time>
      </trkpt>
      <trkpt lat="39.17625" lon="-8.70492">
        <ele>8.79</ele>
        <time>2019-05-13T08:30:49Z</time>
      </trkpt>
      <trkpt lat="39.17643" lon="-8.70482">
        <ele>9.27</ele>
        <time>2019-05-13T08:31:05Z</time>
      </trkpt>
      <trkpt lat="39.17658" lon="-8.7047">
        <ele>8.31</ele>
        <time>2019-05-13T08:31:20Z</time>
      </trkpt>
      <trkpt lat="39.17675" lon="-8.70458">
        <ele>8.31</ele>
        <time>2019-05-13T08:31:36Z</time>
      </trkpt>
      <trkpt lat="39.17692" lon="-8.70448">
        <ele>7.83</ele>
        <time>2019-05-13T08:31:51Z</time>
      </trkpt>
      <trkpt lat="39.17708" lon="-8.70439">
        <ele>7.35</ele>
        <time>2019-05-13T08:32:06Z</time>
      </trkpt>
      <trkpt lat="39.17713" lon="-8.70439">
        <ele>7.83</ele>
        <time>2019-05-13T08:32:10Z</time>
      </trkpt>
      <trkpt lat="39.17732" lon="-8.70433">
        <ele>8.31</ele>
        <time>2019-05-13T08:32:26Z</time>
      </trkpt>
      <trkpt lat="39.17751" lon="-8.70426">
        <ele>8.31</ele>
        <time>2019-05-13T08:32:42Z</time>
      </trkpt>
      <trkpt lat="39.17758" lon="-8.70423">
        <ele>9.27</ele>
        <time>2019-05-13T08:32:50Z</time>
      </trkpt>
      <trkpt lat="39.17758" lon="-8.70423">
        <ele>8.79</ele>
        <time>2019-05-13T08:32:51Z</time>
      </trkpt>
      <trkpt lat="39.17774" lon="-8.70414">
        <ele>8.79</ele>
        <time>2019-05-13T08:33:06Z</time>
      </trkpt>
      <trkpt lat="39.17787" lon="-8.70404">
        <ele>9.27</ele>
        <time>2019-05-13T08:33:19Z</time>
      </trkpt>
      <trkpt lat="39.17789" lon="-8.70403">
        <ele>8.79</ele>
        <time>2019-05-13T08:33:21Z</time>
      </trkpt>
      <trkpt lat="39.17799" lon="-8.70396">
        <ele>8.79</ele>
        <time>2019-05-13T08:33:30Z</time>
      </trkpt>
      <trkpt lat="39.17817" lon="-8.70382">
        <ele>9.75</ele>
        <time>2019-05-13T08:33:48Z</time>
      </trkpt>
      <trkpt lat="39.17834" lon="-8.70369">
        <ele>8.79</ele>
        <time>2019-05-13T08:34:04Z</time>
      </trkpt>
      <trkpt lat="39.1784" lon="-8.70364">
        <ele>8.79</ele>
        <time>2019-05-13T08:34:10Z</time>
      </trkpt>
      <trkpt lat="39.17856" lon="-8.70352">
        <ele>8.79</ele>
        <time>2019-05-13T08:34:25Z</time>
      </trkpt>
      <trkpt lat="39.17873" lon="-8.70339">
        <ele>9.27</ele>
        <time>2019-05-13T08:34:41Z</time>
      </trkpt>
      <trkpt lat="39.17886" lon="-8.70329">
        <ele>8.79</ele>
        <time>2019-05-13T08:34:54Z</time>
      </trkpt>
      <trkpt lat="39.17902" lon="-8.70317">
        <ele>9.75</ele>
        <time>2019-05-13T08:35:09Z</time>
      </trkpt>
      <trkpt lat="39.17919" lon="-8.70304">
        <ele>9.27</ele>
        <time>2019-05-13T08:35:26Z</time>
      </trkpt>
      <trkpt lat="39.17923" lon="-8.70302">
        <ele>8.79</ele>
        <time>2019-05-13T08:35:29Z</time>
      </trkpt>
      <trkpt lat="39.17937" lon="-8.70289">
        <ele>9.27</ele>
        <time>2019-05-13T08:35:44Z</time>
      </trkpt>
      <trkpt lat="39.17953" lon="-8.70279">
        <ele>9.27</ele>
        <time>2019-05-13T08:35:59Z</time>
      </trkpt>
      <trkpt lat="39.17966" lon="-8.70271">
        <ele>9.27</ele>
        <time>2019-05-13T08:36:13Z</time>
      </trkpt>
      <trkpt lat="39.17981" lon="-8.70266">
        <ele>8.31</ele>
        <time>2019-05-13T08:36:27Z</time>
      </trkpt>
      <trkpt lat="39.18001" lon="-8.70263">
        <ele>8.79</ele>
        <time>2019-05-13T08:36:44Z</time>
      </trkpt>
      <trkpt lat="39.18015" lon="-8.70261">
        <ele>9.75</ele>
        <time>2019-05-13T08:36:59Z</time>
      </trkpt>
      <trkpt lat="39.18019" lon="-8.70267">
        <ele>9.27</ele>
        <time>2019-05-13T08:37:13Z</time>
      </trkpt>
      <trkpt lat="39.1802" lon="-8.70266">
        <ele>9.75</ele>
        <time>2019-05-13T08:37:33Z</time>
      </trkpt>
      <trkpt lat="39.1802" lon="-8.70267">
        <ele>8.79</ele>
        <time>2019-05-13T08:37:44Z</time>
      </trkpt>
      <trkpt lat="39.18021" lon="-8.70267">
        <ele>8.79</ele>
        <time>2019-05-13T08:38:22Z</time>
      </trkpt>
      <trkpt lat="39.1802" lon="-8.70267">
        <ele>8.79</ele>
        <time>2019-05-13T08:39:07Z</time>
      </trkpt>
      <trkpt lat="39.1802" lon="-8.70267">
        <ele>8.79</ele>
        <time>2019-05-13T08:39:37Z</time>
      </trkpt>
      <trkpt lat="39.18021" lon="-8.70267">
        <ele>9.27</ele>
        <time>2019-05-13T08:40:17Z</time>
      </trkpt>
      <trkpt lat="39.18021" lon="-8.70266">
        <ele>8.79</ele>
        <time>2019-05-13T08:40:57Z</time>
      </trkpt>
      <trkpt lat="39.1802" lon="-8.70265">
        <ele>9.27</ele>
        <time>2019-05-13T08:41:30Z</time>
      </trkpt>
      <trkpt lat="39.18021" lon="-8.70266">
        <ele>9.27</ele>
        <time>2019-05-13T08:41:55Z</time>
      </trkpt>
      <trkpt lat="39.18021" lon="-8.70266">
        <ele>8.79</ele>
        <time>2019-05-13T08:42:30Z</time>
      </trkpt>
      <trkpt lat="39.1802" lon="-8.70266">
        <ele>8.79</ele>
        <time>2019-05-13T08:43:06Z</time>
      </trkpt>
      <trkpt lat="39.1802" lon="-8.70268">
        <ele>9.75</ele>
        <time>2019-05-13T08:43:33Z</time>
      </trkpt>
      <trkpt lat="39.18019" lon="-8.70268">
        <ele>9.27</ele>
        <time>2019-05-13T08:44:05Z</time>
      </trkpt>
      <trkpt lat="39.1802" lon="-8.70268">
        <ele>9.27</ele>
        <time>2019-05-13T08:44:36Z</time>
      </trkpt>
      <trkpt lat="39.1802" lon="-8.70269">
        <ele>9.27</ele>
        <time>2019-05-13T08:45:05Z</time>
      </trkpt>
      <trkpt lat="39.1802" lon="-8.70268">
        <ele>9.75</ele>
        <time>2019-05-13T08:45:27Z</time>
      </trkpt>
      <trkpt lat="39.18019" lon="-8.70267">
        <ele>9.75</ele>
        <time>2019-05-13T08:45:56Z</time>
      </trkpt>
      <trkpt lat="39.18019" lon="-8.70267">
        <ele>9.27</ele>
        <time>2019-05-13T08:46:21Z</time>
      </trkpt>
      <trkpt lat="39.1802" lon="-8.70269">
        <ele>9.75</ele>
        <time>2019-05-13T08:46:47Z</time>
      </trkpt>
      <trkpt lat="39.1802" lon="-8.70268">
        <ele>9.75</ele>
        <time>2019-05-13T08:47:15Z</time>
      </trkpt>
      <trkpt lat="39.1802" lon="-8.70268">
        <ele>9.27</ele>
        <time>2019-05-13T08:47:45Z</time>
      </trkpt>
      <trkpt lat="39.1802" lon="-8.70268">
        <ele>9.75</ele>
        <time>2019-05-13T08:48:13Z</time>
      </trkpt>
      <trkpt lat="39.1802" lon="-8.70267">
        <ele>10.23</ele>
        <time>2019-05-13T08:48:48Z</time>
      </trkpt>
      <trkpt lat="39.1802" lon="-8.70268">
        <ele>9.75</ele>
        <time>2019-05-13T08:49:20Z</time>
      </trkpt>
      <trkpt lat="39.1802" lon="-8.70267">
        <ele>9.27</ele>
        <time>2019-05-13T08:49:55Z</time>
      </trkpt>
      <trkpt lat="39.1802" lon="-8.70266">
        <ele>9.75</ele>
        <time>2019-05-13T08:50:21Z</time>
      </trkpt>
      <trkpt lat="39.1802" lon="-8.70268">
        <ele>10.23</ele>
        <time>2019-05-13T08:50:53Z</time>
      </trkpt>
      <trkpt lat="39.1802" lon="-8.70267">
        <ele>8.79</ele>
        <time>2019-05-13T08:51:28Z</time>
      </trkpt>
      <trkpt lat="39.1802" lon="-8.70269">
        <ele>9.75</ele>
        <time>2019-05-13T08:51:57Z</time>
      </trkpt>
      <trkpt lat="39.1802" lon="-8.70269">
        <ele>9.27</ele>
        <time>2019-05-13T08:52:18Z</time>
      </trkpt>
      <trkpt lat="39.1802" lon="-8.70267">
        <ele>9.75</ele>
        <time>2019-05-13T08:52:47Z</time>
      </trkpt>
      <trkpt lat="39.18019" lon="-8.70266">
        <ele>9.75</ele>
        <time>2019-05-13T08:53:08Z</time>
      </trkpt>
      <trkpt lat="39.1802" lon="-8.70267">
        <ele>9.75</ele>
        <time>2019-05-13T08:53:41Z</time>
      </trkpt>
      <trkpt lat="39.1802" lon="-8.70267">
        <ele>10.23</ele>
        <time>2019-05-13T08:54:10Z</time>
      </trkpt>
      <trkpt lat="39.18019" lon="-8.70266">
        <ele>9.75</ele>
        <time>2019-05-13T08:54:46Z</time>
      </trkpt>
      <trkpt lat="39.18019" lon="-8.70267">
        <ele>10.23</ele>
        <time>2019-05-13T08:55:16Z</time>
      </trkpt>
      <trkpt lat="39.1802" lon="-8.70267">
        <ele>9.75</ele>
        <time>2019-05-13T08:55:47Z</time>
      </trkpt>
      <trkpt lat="39.1802" lon="-8.70267">
        <ele>9.75</ele>
        <time>2019-05-13T08:56:28Z</time>
      </trkpt>
      <trkpt lat="39.1802" lon="-8.70266">
        <ele>10.71</ele>
        <time>2019-05-13T08:56:52Z</time>
      </trkpt>
      <trkpt lat="39.18021" lon="-8.70266">
        <ele>10.71</ele>
        <time>2019-05-13T08:57:03Z</time>
      </trkpt>
      <trkpt lat="39.1802" lon="-8.70266">
        <ele>11.19</ele>
        <time>2019-05-13T08:57:26Z</time>
      </trkpt>
      <trkpt lat="39.18023" lon="-8.70262">
        <ele>11.67</ele>
        <time>2019-05-13T08:57:44Z</time>
      </trkpt>
      <trkpt lat="39.18036" lon="-8.70248">
        <ele>11.19</ele>
        <time>2019-05-13T08:58:02Z</time>
      </trkpt>
      <trkpt lat="39.18044" lon="-8.70234">
        <ele>11.19</ele>
        <time>2019-05-13T08:58:14Z</time>
      </trkpt>
      <trkpt lat="39.18057" lon="-8.70215">
        <ele>11.19</ele>
        <time>2019-05-13T08:58:31Z</time>
      </trkpt>
      <trkpt lat="39.18072" lon="-8.70197">
        <ele>10.71</ele>
        <time>2019-05-13T08:58:49Z</time>
      </trkpt>
      <trkpt lat="39.18084" lon="-8.70181">
        <ele>10.71</ele>
        <time>2019-05-13T08:59:03Z</time>
      </trkpt>
      <trkpt lat="39.18097" lon="-8.70169">
        <ele>9.75</ele>
        <time>2019-05-13T08:59:18Z</time>
      </trkpt>
      <trkpt lat="39.18111" lon="-8.70154">
        <ele>9.75</ele>
        <time>2019-05-13T08:59:34Z</time>
      </trkpt>
      <trkpt lat="39.18123" lon="-8.70146">
        <ele>10.23</ele>
        <time>2019-05-13T08:59:50Z</time>
      </trkpt>
      <trkpt lat="39.1814" lon="-8.70134">
        <ele>10.23</ele>
        <time>2019-05-13T09:00:07Z</time>
      </trkpt>
      <trkpt lat="39.18156" lon="-8.70122">
        <ele>10.23</ele>
        <time>2019-05-13T09:00:22Z</time>
      </trkpt>
      <trkpt lat="39.18166" lon="-8.70114">
        <ele>10.23</ele>
        <time>2019-05-13T09:00:37Z</time>
      </trkpt>
      <trkpt lat="39.18171" lon="-8.70108">
        <ele>10.23</ele>
        <time>2019-05-13T09:00:50Z</time>
      </trkpt>
      <trkpt lat="39.18185" lon="-8.70098">
        <ele>9.75</ele>
        <time>2019-05-13T09:01:04Z</time>
      </trkpt>
      <trkpt lat="39.182" lon="-8.70085">
        <ele>9.75</ele>
        <time>2019-05-13T09:01:19Z</time>
      </trkpt>
      <trkpt lat="39.18214" lon="-8.70074">
        <ele>9.27</ele>
        <time>2019-05-13T09:01:33Z</time>
      </trkpt>
      <trkpt lat="39.18219" lon="-8.70071">
        <ele>9.75</ele>
        <time>2019-05-13T09:01:38Z</time>
      </trkpt>
      <trkpt lat="39.18234" lon="-8.70058">
        <ele>9.75</ele>
        <time>2019-05-13T09:01:53Z</time>
      </trkpt>
      <trkpt lat="39.18248" lon="-8.70041">
        <ele>10.71</ele>
        <time>2019-05-13T09:02:09Z</time>
      </trkpt>
      <trkpt lat="39.18262" lon="-8.70027">
        <ele>9.27</ele>
        <time>2019-05-13T09:02:25Z</time>
      </trkpt>
      <trkpt lat="39.18276" lon="-8.7001">
        <ele>9.27</ele>
        <time>2019-05-13T09:02:41Z</time>
      </trkpt>
      <trkpt lat="39.18278" lon="-8.70009">
        <ele>9.27</ele>
        <time>2019-05-13T09:02:43Z</time>
      </trkpt>
      <trkpt lat="39.18282" lon="-8.70004">
        <ele>10.23</ele>
        <time>2019-05-13T09:02:47Z</time>
      </trkpt>
      <trkpt lat="39.18298" lon="-8.69989">
        <ele>10.23</ele>
        <time>2019-05-13T09:03:03Z</time>
      </trkpt>
      <trkpt lat="39.18305" lon="-8.69981">
        <ele>10.23</ele>
        <time>2019-05-13T09:03:11Z</time>
      </trkpt>
      <trkpt lat="39.18322" lon="-8.69969">
        <ele>10.23</ele>
        <time>2019-05-13T09:03:28Z</time>
      </trkpt>
      <trkpt lat="39.18335" lon="-8.69957">
        <ele>9.75</ele>
        <time>2019-05-13T09:03:42Z</time>
      </trkpt>
      <trkpt lat="39.18351" lon="-8.69948">
        <ele>9.75</ele>
        <time>2019-05-13T09:03:58Z</time>
      </trkpt>
      <trkpt lat="39.18367" lon="-8.69934">
        <ele>9.75</ele>
        <time>2019-05-13T09:04:14Z</time>
      </trkpt>
      <trkpt lat="39.18385" lon="-8.69922">
        <ele>9.27</ele>
        <time>2019-05-13T09:04:31Z</time>
      </trkpt>
      <trkpt lat="39.18398" lon="-8.69914">
        <ele>9.75</ele>
        <time>2019-05-13T09:04:44Z</time>
      </trkpt>
      <trkpt lat="39.18409" lon="-8.69911">
        <ele>8.79</ele>
        <time>2019-05-13T09:04:57Z</time>
      </trkpt>
      <trkpt lat="39.18425" lon="-8.69902">
        <ele>9.27</ele>
        <time>2019-05-13T09:05:12Z</time>
      </trkpt>
      <trkpt lat="39.18443" lon="-8.69891">
        <ele>9.27</ele>
        <time>2019-05-13T09:05:28Z</time>
      </trkpt>
      <trkpt lat="39.18453" lon="-8.69885">
        <ele>9.75</ele>
        <time>2019-05-13T09:05:43Z</time>
      </trkpt>
      <trkpt lat="39.18458" lon="-8.69883">
        <ele>10.23</ele>
        <time>2019-05-13T09:06:06Z</time>
      </trkpt>
      <trkpt lat="39.18463" lon="-8.6988">
        <ele>9.75</ele>
        <time>2019-05-13T09:06:16Z</time>
      </trkpt>
      <trkpt lat="39.18467" lon="-8.6988">
        <ele>9.27</ele>
        <time>2019-05-13T09:06:20Z</time>
      </trkpt>
      <trkpt lat="39.18483" lon="-8.69872">
        <ele>9.27</ele>
        <time>2019-05-13T09:06:35Z</time>
      </trkpt>
      <trkpt lat="39.185" lon="-8.69863">
        <ele>8.31</ele>
        <time>2019-05-13T09:06:51Z</time>
      </trkpt>
      <trkpt lat="39.18516" lon="-8.69854">
        <ele>9.27</ele>
        <time>2019-05-13T09:07:06Z</time>
      </trkpt>
      <trkpt lat="39.18529" lon="-8.69845">
        <ele>8.79</ele>
        <time>2019-05-13T09:07:20Z</time>
      </trkpt>
      <trkpt lat="39.18547" lon="-8.69836">
        <ele>9.75</ele>
        <time>2019-05-13T09:07:36Z</time>
      </trkpt>
      <trkpt lat="39.18565" lon="-8.69823">
        <ele>9.75</ele>
        <time>2019-05-13T09:07:53Z</time>
      </trkpt>
      <trkpt lat="39.18583" lon="-8.69814">
        <ele>9.27</ele>
        <time>2019-05-13T09:08:11Z</time>
      </trkpt>
      <trkpt lat="39.18601" lon="-8.69804">
        <ele>9.27</ele>
        <time>2019-05-13T09:08:28Z</time>
      </trkpt>
      <trkpt lat="39.18619" lon="-8.69794">
        <ele>8.79</ele>
        <time>2019-05-13T09:08:44Z</time>
      </trkpt>
      <trkpt lat="39.18636" lon="-8.69786">
        <ele>9.27</ele>
        <time>2019-05-13T09:09:00Z</time>
      </trkpt>
      <trkpt lat="39.1865" lon="-8.69776">
        <ele>9.75</ele>
        <time>2019-05-13T09:09:14Z</time>
      </trkpt>
      <trkpt lat="39.18668" lon="-8.69763">
        <ele>9.75</ele>
        <time>2019-05-13T09:09:31Z</time>
      </trkpt>
      <trkpt lat="39.18687" lon="-8.69752">
        <ele>9.75</ele>
        <time>2019-05-13T09:09:48Z</time>
      </trkpt>
      <trkpt lat="39.18702" lon="-8.69742">
        <ele>8.79</ele>
        <time>2019-05-13T09:10:02Z</time>
      </trkpt>
      <trkpt lat="39.18719" lon="-8.69732">
        <ele>9.27</ele>
        <time>2019-05-13T09:10:18Z</time>
      </trkpt>
      <trkpt lat="39.18736" lon="-8.69724">
        <ele>9.75</ele>
        <time>2019-05-13T09:10:34Z</time>
      </trkpt>
      <trkpt lat="39.18753" lon="-8.69712">
        <ele>8.31</ele>
        <time>2019-05-13T09:10:50Z</time>
      </trkpt>
      <trkpt lat="39.18761" lon="-8.69708">
        <ele>8.79</ele>
        <time>2019-05-13T09:10:57Z</time>
      </trkpt>
      <trkpt lat="39.18777" lon="-8.69693">
        <ele>8.31</ele>
        <time>2019-05-13T09:11:14Z</time>
      </trkpt>
      <trkpt lat="39.18796" lon="-8.69677">
        <ele>8.31</ele>
        <time>2019-05-13T09:11:34Z</time>
      </trkpt>
      <trkpt lat="39.18811" lon="-8.69667">
        <ele>8.79</ele>
        <time>2019-05-13T09:11:49Z</time>
      </trkpt>
      <trkpt lat="39.18825" lon="-8.69659">
        <ele>9.27</ele>
        <time>2019-05-13T09:12:03Z</time>
      </trkpt>
      <trkpt lat="39.18835" lon="-8.69652">
        <ele>9.75</ele>
        <time>2019-05-13T09:12:15Z</time>
      </trkpt>
      <trkpt lat="39.18853" lon="-8.69645">
        <ele>9.75</ele>
        <time>2019-05-13T09:12:32Z</time>
      </trkpt>
      <trkpt lat="39.18869" lon="-8.6964">
        <ele>9.27</ele>
        <time>2019-05-13T09:12:46Z</time>
      </trkpt>
      <trkpt lat="39.18885" lon="-8.69636">
        <ele>9.75</ele>
        <time>2019-05-13T09:13:00Z</time>
      </trkpt>
      <trkpt lat="39.18907" lon="-8.6963">
        <ele>9.75</ele>
        <time>2019-05-13T09:13:18Z</time>
      </trkpt>
      <trkpt lat="39.18925" lon="-8.69624">
        <ele>9.27</ele>
        <time>2019-05-13T09:13:34Z</time>
      </trkpt>
      <trkpt lat="39.18946" lon="-8.69619">
        <ele>9.27</ele>
        <time>2019-05-13T09:13:52Z</time>
      </trkpt>
      <trkpt lat="39.18966" lon="-8.69613">
        <ele>9.75</ele>
        <time>2019-05-13T09:14:09Z</time>
      </trkpt>
      <trkpt lat="39.18987" lon="-8.69603">
        <ele>9.75</ele>
        <time>2019-05-13T09:14:28Z</time>
      </trkpt>
      <trkpt lat="39.19002" lon="-8.69596">
        <ele>9.27</ele>
        <time>2019-05-13T09:14:42Z</time>
      </trkpt>
      <trkpt lat="39.1902" lon="-8.69585">
        <ele>9.75</ele>
        <time>2019-05-13T09:14:59Z</time>
      </trkpt>
      <trkpt lat="39.19038" lon="-8.69575">
        <ele>9.75</ele>
        <time>2019-05-13T09:15:15Z</time>
      </trkpt>
      <trkpt lat="39.19057" lon="-8.69565">
        <ele>9.75</ele>
        <time>2019-05-13T09:15:32Z</time>
      </trkpt>
      <trkpt lat="39.19075" lon="-8.69554">
        <ele>9.27</ele>
        <time>2019-05-13T09:15:49Z</time>
      </trkpt>
      <trkpt lat="39.1909" lon="-8.69544">
        <ele>9.75</ele>
        <time>2019-05-13T09:16:03Z</time>
      </trkpt>
      <trkpt lat="39.19107" lon="-8.69534">
        <ele>9.75</ele>
        <time>2019-05-13T09:16:19Z</time>
      </trkpt>
      <trkpt lat="39.19129" lon="-8.69523">
        <ele>10.23</ele>
        <time>2019-05-13T09:16:39Z</time>
      </trkpt>
      <trkpt lat="39.19149" lon="-8.69513">
        <ele>10.71</ele>
        <time>2019-05-13T09:16:57Z</time>
      </trkpt>
      <trkpt lat="39.19166" lon="-8.69506">
        <ele>10.71</ele>
        <time>2019-05-13T09:17:13Z</time>
      </trkpt>
      <trkpt lat="39.19176" lon="-8.69503">
        <ele>11.19</ele>
        <time>2019-05-13T09:17:28Z</time>
      </trkpt>
      <trkpt lat="39.19176" lon="-8.69504">
        <ele>11.19</ele>
        <time>2019-05-13T09:18:05Z</time>
      </trkpt>
      <trkpt lat="39.19183" lon="-8.695">
        <ele>11.19</ele>
        <time>2019-05-13T09:18:29Z</time>
      </trkpt>
      <trkpt lat="39.19202" lon="-8.6949">
        <ele>10.71</ele>
        <time>2019-05-13T09:18:47Z</time>
      </trkpt>
      <trkpt lat="39.19221" lon="-8.69474">
        <ele>10.71</ele>
        <time>2019-05-13T09:19:06Z</time>
      </trkpt>
      <trkpt lat="39.19236" lon="-8.6946">
        <ele>10.23</ele>
        <time>2019-05-13T09:19:21Z</time>
      </trkpt>
      <trkpt lat="39.19246" lon="-8.69448">
        <ele>12.15</ele>
        <time>2019-05-13T09:19:32Z</time>
      </trkpt>
      <trkpt lat="39.19261" lon="-8.69435">
        <ele>10.71</ele>
        <time>2019-05-13T09:19:47Z</time>
      </trkpt>
      <trkpt lat="39.19276" lon="-8.69424">
        <ele>10.23</ele>
        <time>2019-05-13T09:20:02Z</time>
      </trkpt>
      <trkpt lat="39.19292" lon="-8.69412">
        <ele>10.71</ele>
        <time>2019-05-13T09:20:18Z</time>
      </trkpt>
      <trkpt lat="39.19311" lon="-8.69401">
        <ele>11.67</ele>
        <time>2019-05-13T09:20:35Z</time>
      </trkpt>
      <trkpt lat="39.19328" lon="-8.69391">
        <ele>10.23</ele>
        <time>2019-05-13T09:20:50Z</time>
      </trkpt>
      <trkpt lat="39.19348" lon="-8.69383">
        <ele>10.71</ele>
        <time>2019-05-13T09:21:07Z</time>
      </trkpt>
      <trkpt lat="39.19367" lon="-8.69376">
        <ele>11.67</ele>
        <time>2019-05-13T09:21:23Z</time>
      </trkpt>
      <trkpt lat="39.19385" lon="-8.69366">
        <ele>11.19</ele>
        <time>2019-05-13T09:21:40Z</time>
      </trkpt>
      <trkpt lat="39.19404" lon="-8.69356">
        <ele>11.19</ele>
        <time>2019-05-13T09:21:57Z</time>
      </trkpt>
      <trkpt lat="39.19421" lon="-8.69349">
        <ele>10.71</ele>
        <time>2019-05-13T09:22:11Z</time>
      </trkpt>
      <trkpt lat="39.19443" lon="-8.69336">
        <ele>11.19</ele>
        <time>2019-05-13T09:22:31Z</time>
      </trkpt>
      <trkpt lat="39.1946" lon="-8.69328">
        <ele>11.67</ele>
        <time>2019-05-13T09:22:46Z</time>
      </trkpt>
      <trkpt lat="39.19483" lon="-8.69315">
        <ele>12.15</ele>
        <time>2019-05-13T09:23:06Z</time>
      </trkpt>
      <trkpt lat="39.19501" lon="-8.69307">
        <ele>12.15</ele>
        <time>2019-05-13T09:23:21Z</time>
      </trkpt>
      <trkpt lat="39.19518" lon="-8.69298">
        <ele>11.67</ele>
        <time>2019-05-13T09:23:36Z</time>
      </trkpt>
      <trkpt lat="39.19533" lon="-8.6929">
        <ele>11.67</ele>
        <time>2019-05-13T09:23:49Z</time>
      </trkpt>
      <trkpt lat="39.19552" lon="-8.69281">
        <ele>12.15</ele>
        <time>2019-05-13T09:24:05Z</time>
      </trkpt>
      <trkpt lat="39.19572" lon="-8.69269">
        <ele>12.15</ele>
        <time>2019-05-13T09:24:23Z</time>
      </trkpt>
      <trkpt lat="39.19586" lon="-8.69264">
        <ele>12.63</ele>
        <time>2019-05-13T09:24:41Z</time>
      </trkpt>
      <trkpt lat="39.19586" lon="-8.69265">
        <ele>16</ele>
        <time>2019-05-13T09:24:46Z</time>
      </trkpt>
      <trkpt lat="39.19586" lon="-8.69264">
        <ele>12.63</ele>
        <time>2019-05-13T09:24:47Z</time>
      </trkpt>
      <trkpt lat="39.19587" lon="-8.69262">
        <ele>13.6</ele>
        <time>2019-05-13T09:24:49Z</time>
      </trkpt>
      <trkpt lat="39.19589" lon="-8.69259">
        <ele>13.6</ele>
        <time>2019-05-13T09:24:52Z</time>
      </trkpt>
      <trkpt lat="39.196" lon="-8.69252">
        <ele>13.12</ele>
        <time>2019-05-13T09:25:06Z</time>
      </trkpt>
      <trkpt lat="39.19615" lon="-8.69242">
        <ele>13.12</ele>
        <time>2019-05-13T09:25:21Z</time>
      </trkpt>
      <trkpt lat="39.19627" lon="-8.69234">
        <ele>12.15</ele>
        <time>2019-05-13T09:25:35Z</time>
      </trkpt>
      <trkpt lat="39.19645" lon="-8.69222">
        <ele>12.63</ele>
        <time>2019-05-13T09:25:52Z</time>
      </trkpt>
      <trkpt lat="39.19663" lon="-8.69211">
        <ele>12.63</ele>
        <time>2019-05-13T09:26:08Z</time>
      </trkpt>
      <trkpt lat="39.19688" lon="-8.69198">
        <ele>11.67</ele>
        <time>2019-05-13T09:26:29Z</time>
      </trkpt>
      <trkpt lat="39.19708" lon="-8.69185">
        <ele>12.15</ele>
        <time>2019-05-13T09:26:47Z</time>
      </trkpt>
      <trkpt lat="39.19731" lon="-8.69171">
        <ele>12.15</ele>
        <time>2019-05-13T09:27:07Z</time>
      </trkpt>
      <trkpt lat="39.19749" lon="-8.69159">
        <ele>12.15</ele>
        <time>2019-05-13T09:27:23Z</time>
      </trkpt>
      <trkpt lat="39.19763" lon="-8.6915">
        <ele>12.15</ele>
        <time>2019-05-13T09:27:35Z</time>
      </trkpt>
      <trkpt lat="39.19781" lon="-8.69139">
        <ele>11.67</ele>
        <time>2019-05-13T09:27:52Z</time>
      </trkpt>
      <trkpt lat="39.19797" lon="-8.6913">
        <ele>12.63</ele>
        <time>2019-05-13T09:28:06Z</time>
      </trkpt>
      <trkpt lat="39.19812" lon="-8.69119">
        <ele>12.63</ele>
        <time>2019-05-13T09:28:20Z</time>
      </trkpt>
      <trkpt lat="39.19827" lon="-8.6911">
        <ele>12.63</ele>
        <time>2019-05-13T09:28:33Z</time>
      </trkpt>
      <trkpt lat="39.19846" lon="-8.69102">
        <ele>12.63</ele>
        <time>2019-05-13T09:28:49Z</time>
      </trkpt>
      <trkpt lat="39.19853" lon="-8.69099">
        <ele>12.15</ele>
        <time>2019-05-13T09:29:03Z</time>
      </trkpt>
      <trkpt lat="39.19858" lon="-8.69096">
        <ele>13.6</ele>
        <time>2019-05-13T09:29:08Z</time>
      </trkpt>
      <trkpt lat="39.19874" lon="-8.69088">
        <ele>12.63</ele>
        <time>2019-05-13T09:29:22Z</time>
      </trkpt>
      <trkpt lat="39.1988" lon="-8.69086">
        <ele>12.63</ele>
        <time>2019-05-13T09:29:27Z</time>
      </trkpt>
      <trkpt lat="39.19899" lon="-8.69076">
        <ele>12.63</ele>
        <time>2019-05-13T09:29:44Z</time>
      </trkpt>
      <trkpt lat="39.19915" lon="-8.69068">
        <ele>12.63</ele>
        <time>2019-05-13T09:29:58Z</time>
      </trkpt>
      <trkpt lat="39.19933" lon="-8.69056">
        <ele>13.12</ele>
        <time>2019-05-13T09:30:15Z</time>
      </trkpt>
      <trkpt lat="39.19946" lon="-8.69044">
        <ele>13.12</ele>
        <time>2019-05-13T09:30:29Z</time>
      </trkpt>
      <trkpt lat="39.19958" lon="-8.69031">
        <ele>13.6</ele>
        <time>2019-05-13T09:30:42Z</time>
      </trkpt>
      <trkpt lat="39.19972" lon="-8.69015">
        <ele>13.6</ele>
        <time>2019-05-13T09:30:58Z</time>
      </trkpt>
      <trkpt lat="39.1999" lon="-8.68993">
        <ele>13.6</ele>
        <time>2019-05-13T09:31:18Z</time>
      </trkpt>
      <trkpt lat="39.20004" lon="-8.68976">
        <ele>13.12</ele>
        <time>2019-05-13T09:31:34Z</time>
      </trkpt>
      <trkpt lat="39.20019" lon="-8.68957">
        <ele>13.6</ele>
        <time>2019-05-13T09:31:52Z</time>
      </trkpt>
      <trkpt lat="39.20021" lon="-8.68958">
        <ele>13.6</ele>
        <time>2019-05-13T09:32:07Z</time>
      </trkpt>
      <trkpt lat="39.20021" lon="-8.68958">
        <ele>14.08</ele>
        <time>2019-05-13T09:32:35Z</time>
      </trkpt>
      <trkpt lat="39.2002" lon="-8.68958">
        <ele>10.23</ele>
        <time>2019-05-13T09:32:48Z</time>
      </trkpt>
      <trkpt lat="39.2002" lon="-8.68958">
        <ele>14.08</ele>
        <time>2019-05-13T09:32:49Z</time>
      </trkpt>
      <trkpt lat="39.20024" lon="-8.68953">
        <ele>13.12</ele>
        <time>2019-05-13T09:33:01Z</time>
      </trkpt>
      <trkpt lat="39.20039" lon="-8.68934">
        <ele>12.63</ele>
        <time>2019-05-13T09:33:18Z</time>
      </trkpt>
      <trkpt lat="39.20052" lon="-8.68919">
        <ele>13.6</ele>
        <time>2019-05-13T09:33:33Z</time>
      </trkpt>
      <trkpt lat="39.20063" lon="-8.68903">
        <ele>13.6</ele>
        <time>2019-05-13T09:33:49Z</time>
      </trkpt>
      <trkpt lat="39.20066" lon="-8.68899">
        <ele>13.6</ele>
        <time>2019-05-13T09:34:02Z</time>
      </trkpt>
      <trkpt lat="39.20068" lon="-8.68898">
        <ele>13.6</ele>
        <time>2019-05-13T09:34:16Z</time>
      </trkpt>
      <trkpt lat="39.20068" lon="-8.68897">
        <ele>13.12</ele>
        <time>2019-05-13T09:34:29Z</time>
      </trkpt>
      <trkpt lat="39.20086" lon="-8.6888">
        <ele>13.12</ele>
        <time>2019-05-13T09:34:49Z</time>
      </trkpt>
      <trkpt lat="39.201" lon="-8.68864">
        <ele>13.12</ele>
        <time>2019-05-13T09:35:05Z</time>
      </trkpt>
      <trkpt lat="39.20113" lon="-8.68849">
        <ele>13.12</ele>
        <time>2019-05-13T09:35:20Z</time>
      </trkpt>
      <trkpt lat="39.20126" lon="-8.68834">
        <ele>13.6</ele>
        <time>2019-05-13T09:35:35Z</time>
      </trkpt>
      <trkpt lat="39.2014" lon="-8.68815">
        <ele>13.6</ele>
        <time>2019-05-13T09:35:52Z</time>
      </trkpt>
      <trkpt lat="39.20142" lon="-8.68808">
        <ele>13.12</ele>
        <time>2019-05-13T09:35:57Z</time>
      </trkpt>
      <trkpt lat="39.20143" lon="-8.68804">
        <ele>13.6</ele>
        <time>2019-05-13T09:36:09Z</time>
      </trkpt>
      <trkpt lat="39.20135" lon="-8.68785">
        <ele>12.15</ele>
        <time>2019-05-13T09:36:23Z</time>
      </trkpt>
      <trkpt lat="39.20126" lon="-8.68769">
        <ele>14.08</ele>
        <time>2019-05-13T09:36:36Z</time>
      </trkpt>
      <trkpt lat="39.20121" lon="-8.68762">
        <ele>13.6</ele>
        <time>2019-05-13T09:36:42Z</time>
      </trkpt>
      <trkpt lat="39.2011" lon="-8.68745">
        <ele>13.12</ele>
        <time>2019-05-13T09:36:56Z</time>
      </trkpt>
      <trkpt lat="39.20108" lon="-8.68741">
        <ele>13.6</ele>
        <time>2019-05-13T09:36:59Z</time>
      </trkpt>
      <trkpt lat="39.20099" lon="-8.68724">
        <ele>13.12</ele>
        <time>2019-05-13T09:37:14Z</time>
      </trkpt>
      <trkpt lat="39.20096" lon="-8.68716">
        <ele>13.6</ele>
        <time>2019-05-13T09:37:20Z</time>
      </trkpt>
      <trkpt lat="39.20097" lon="-8.68711">
        <ele>13.6</ele>
        <time>2019-05-13T09:37:25Z</time>
      </trkpt>
      <trkpt lat="39.20108" lon="-8.68712">
        <ele>13.6</ele>
        <time>2019-05-13T09:37:39Z</time>
      </trkpt>
      <trkpt lat="39.20128" lon="-8.68717">
        <ele>14.08</ele>
        <time>2019-05-13T09:37:55Z</time>
      </trkpt>
      <trkpt lat="39.20136" lon="-8.6872">
        <ele>13.6</ele>
        <time>2019-05-13T09:38:01Z</time>
      </trkpt>
      <trkpt lat="39.20144" lon="-8.68725">
        <ele>14.08</ele>
        <time>2019-05-13T09:38:18Z</time>
      </trkpt>
      <trkpt lat="39.20148" lon="-8.68728">
        <ele>13.12</ele>
        <time>2019-05-13T09:38:41Z</time>
      </trkpt>
      <trkpt lat="39.20148" lon="-8.68724">
        <ele>13.12</ele>
        <time>2019-05-13T09:39:07Z</time>
      </trkpt>
      <trkpt lat="39.20158" lon="-8.68724">
        <ele>13.12</ele>
        <time>2019-05-13T09:39:18Z</time>
      </trkpt>
      <trkpt lat="39.20177" lon="-8.68727">
        <ele>12.63</ele>
        <time>2019-05-13T09:39:34Z</time>
      </trkpt>
      <trkpt lat="39.20196" lon="-8.68728">
        <ele>13.12</ele>
        <time>2019-05-13T09:39:50Z</time>
      </trkpt>
      <trkpt lat="39.20212" lon="-8.6873">
        <ele>13.12</ele>
        <time>2019-05-13T09:40:03Z</time>
      </trkpt>
      <trkpt lat="39.20227" lon="-8.68732">
        <ele>12.63</ele>
        <time>2019-05-13T09:40:17Z</time>
      </trkpt>
      <trkpt lat="39.20243" lon="-8.68732">
        <ele>12.63</ele>
        <time>2019-05-13T09:40:29Z</time>
      </trkpt>
      <trkpt lat="39.20266" lon="-8.68732">
        <ele>13.6</ele>
        <time>2019-05-13T09:40:47Z</time>
      </trkpt>
      <trkpt lat="39.20285" lon="-8.68734">
        <ele>13.6</ele>
        <time>2019-05-13T09:41:02Z</time>
      </trkpt>
      <trkpt lat="39.20295" lon="-8.68735">
        <ele>12.63</ele>
        <time>2019-05-13T09:41:14Z</time>
      </trkpt>
      <trkpt lat="39.20306" lon="-8.68735">
        <ele>12.63</ele>
        <time>2019-05-13T09:41:27Z</time>
      </trkpt>
      <trkpt lat="39.2033" lon="-8.68736">
        <ele>13.12</ele>
        <time>2019-05-13T09:41:45Z</time>
      </trkpt>
      <trkpt lat="39.20355" lon="-8.68737">
        <ele>12.15</ele>
        <time>2019-05-13T09:42:04Z</time>
      </trkpt>
      <trkpt lat="39.20376" lon="-8.6874">
        <ele>12.63</ele>
        <time>2019-05-13T09:42:20Z</time>
      </trkpt>
      <trkpt lat="39.2039" lon="-8.68738">
        <ele>13.12</ele>
        <time>2019-05-13T09:42:34Z</time>
      </trkpt>
      <trkpt lat="39.20399" lon="-8.68734">
        <ele>12.63</ele>
        <time>2019-05-13T09:42:42Z</time>
      </trkpt>
      <trkpt lat="39.20419" lon="-8.68726">
        <ele>12.63</ele>
        <time>2019-05-13T09:42:58Z</time>
      </trkpt>
      <trkpt lat="39.20438" lon="-8.68718">
        <ele>12.63</ele>
        <time>2019-05-13T09:43:14Z</time>
      </trkpt>
      <trkpt lat="39.20455" lon="-8.68711">
        <ele>12.15</ele>
        <time>2019-05-13T09:43:29Z</time>
      </trkpt>
      <trkpt lat="39.20472" lon="-8.68704">
        <ele>12.15</ele>
        <time>2019-05-13T09:43:43Z</time>
      </trkpt>
      <trkpt lat="39.20492" lon="-8.68695">
        <ele>11.67</ele>
        <time>2019-05-13T09:43:59Z</time>
      </trkpt>
      <trkpt lat="39.20509" lon="-8.68686">
        <ele>12.15</ele>
        <time>2019-05-13T09:44:14Z</time>
      </trkpt>
      <trkpt lat="39.20531" lon="-8.68676">
        <ele>12.63</ele>
        <time>2019-05-13T09:44:32Z</time>
      </trkpt>
      <trkpt lat="39.20549" lon="-8.68668">
        <ele>11.67</ele>
        <time>2019-05-13T09:44:48Z</time>
      </trkpt>
      <trkpt lat="39.20566" lon="-8.6866">
        <ele>12.15</ele>
        <time>2019-05-13T09:45:03Z</time>
      </trkpt>
      <trkpt lat="39.20582" lon="-8.68654">
        <ele>12.15</ele>
        <time>2019-05-13T09:45:17Z</time>
      </trkpt>
      <trkpt lat="39.20598" lon="-8.68645">
        <ele>12.63</ele>
        <time>2019-05-13T09:45:31Z</time>
      </trkpt>
      <trkpt lat="39.20612" lon="-8.68639">
        <ele>12.15</ele>
        <time>2019-05-13T09:45:42Z</time>
      </trkpt>
      <trkpt lat="39.20629" lon="-8.68634">
        <ele>11.67</ele>
        <time>2019-05-13T09:45:56Z</time>
      </trkpt>
      <trkpt lat="39.20646" lon="-8.68626">
        <ele>11.67</ele>
        <time>2019-05-13T09:46:11Z</time>
      </trkpt>
      <trkpt lat="39.20657" lon="-8.68621">
        <ele>11.19</ele>
        <time>2019-05-13T09:46:21Z</time>
      </trkpt>
      <trkpt lat="39.20678" lon="-8.68613">
        <ele>12.15</ele>
        <time>2019-05-13T09:46:38Z</time>
      </trkpt>
      <trkpt lat="39.20699" lon="-8.68604">
        <ele>12.15</ele>
        <time>2019-05-13T09:46:56Z</time>
      </trkpt>
      <trkpt lat="39.20703" lon="-8.68601">
        <ele>11.67</ele>
        <time>2019-05-13T09:47:08Z</time>
      </trkpt>
      <trkpt lat="39.20722" lon="-8.68593">
        <ele>11.67</ele>
        <time>2019-05-13T09:47:24Z</time>
      </trkpt>
      <trkpt lat="39.20736" lon="-8.68587">
        <ele>12.15</ele>
        <time>2019-05-13T09:47:36Z</time>
      </trkpt>
      <trkpt lat="39.20748" lon="-8.68582">
        <ele>13.12</ele>
        <time>2019-05-13T09:47:51Z</time>
      </trkpt>
      <trkpt lat="39.20766" lon="-8.68575">
        <ele>12.63</ele>
        <time>2019-05-13T09:48:07Z</time>
      </trkpt>
      <trkpt lat="39.20786" lon="-8.68566">
        <ele>12.63</ele>
        <time>2019-05-13T09:48:24Z</time>
      </trkpt>
      <trkpt lat="39.20797" lon="-8.68561">
        <ele>12.15</ele>
        <time>2019-05-13T09:48:34Z</time>
      </trkpt>
      <trkpt lat="39.20809" lon="-8.68554">
        <ele>11.67</ele>
        <time>2019-05-13T09:48:45Z</time>
      </trkpt>
      <trkpt lat="39.20833" lon="-8.68542">
        <ele>12.15</ele>
        <time>2019-05-13T09:49:05Z</time>
      </trkpt>
      <trkpt lat="39.20853" lon="-8.68533">
        <ele>12.15</ele>
        <time>2019-05-13T09:49:22Z</time>
      </trkpt>
      <trkpt lat="39.2087" lon="-8.68526">
        <ele>12.63</ele>
        <time>2019-05-13T09:49:37Z</time>
      </trkpt>
      <trkpt lat="39.20882" lon="-8.68521">
        <ele>12.63</ele>
        <time>2019-05-13T09:49:47Z</time>
      </trkpt>
      <trkpt lat="39.20902" lon="-8.68511">
        <ele>12.63</ele>
        <time>2019-05-13T09:50:05Z</time>
      </trkpt>
      <trkpt lat="39.20923" lon="-8.68502">
        <ele>12.15</ele>
        <time>2019-05-13T09:50:23Z</time>
      </trkpt>
      <trkpt lat="39.20944" lon="-8.68494">
        <ele>12.15</ele>
        <time>2019-05-13T09:50:40Z</time>
      </trkpt>
      <trkpt lat="39.20961" lon="-8.68486">
        <ele>12.15</ele>
        <time>2019-05-13T09:50:55Z</time>
      </trkpt>
      <trkpt lat="39.20982" lon="-8.68477">
        <ele>12.63</ele>
        <time>2019-05-13T09:51:13Z</time>
      </trkpt>
      <trkpt lat="39.20994" lon="-8.68472">
        <ele>12.15</ele>
        <time>2019-05-13T09:51:24Z</time>
      </trkpt>
      <trkpt lat="39.21014" lon="-8.68462">
        <ele>11.67</ele>
        <time>2019-05-13T09:51:41Z</time>
      </trkpt>
      <trkpt lat="39.21022" lon="-8.6846">
        <ele>13.12</ele>
        <time>2019-05-13T09:51:51Z</time>
      </trkpt>
      <trkpt lat="39.21037" lon="-8.68444">
        <ele>12.15</ele>
        <time>2019-05-13T09:52:08Z</time>
      </trkpt>
      <trkpt lat="39.21056" lon="-8.68422">
        <ele>12.63</ele>
        <time>2019-05-13T09:52:27Z</time>
      </trkpt>
      <trkpt lat="39.21067" lon="-8.68404">
        <ele>12.15</ele>
        <time>2019-05-13T09:52:42Z</time>
      </trkpt>
      <trkpt lat="39.21076" lon="-8.68394">
        <ele>12.63</ele>
        <time>2019-05-13T09:52:56Z</time>
      </trkpt>
      <trkpt lat="39.21088" lon="-8.68378">
        <ele>12.63</ele>
        <time>2019-05-13T09:53:10Z</time>
      </trkpt>
      <trkpt lat="39.21097" lon="-8.68367">
        <ele>13.12</ele>
        <time>2019-05-13T09:53:21Z</time>
      </trkpt>
      <trkpt lat="39.211" lon="-8.68365">
        <ele>12.63</ele>
        <time>2019-05-13T09:53:23Z</time>
      </trkpt>
      <trkpt lat="39.21112" lon="-8.68348">
        <ele>12.15</ele>
        <time>2019-05-13T09:53:38Z</time>
      </trkpt>
      <trkpt lat="39.21126" lon="-8.6833">
        <ele>11.67</ele>
        <time>2019-05-13T09:53:54Z</time>
      </trkpt>
      <trkpt lat="39.2114" lon="-8.68314">
        <ele>12.63</ele>
        <time>2019-05-13T09:54:10Z</time>
      </trkpt>
      <trkpt lat="39.21155" lon="-8.68297">
        <ele>13.12</ele>
        <time>2019-05-13T09:54:26Z</time>
      </trkpt>
      <trkpt lat="39.21173" lon="-8.68282">
        <ele>12.63</ele>
        <time>2019-05-13T09:54:44Z</time>
      </trkpt>
      <trkpt lat="39.21189" lon="-8.68268">
        <ele>12.63</ele>
        <time>2019-05-13T09:55:00Z</time>
      </trkpt>
      <trkpt lat="39.21205" lon="-8.68257">
        <ele>12.63</ele>
        <time>2019-05-13T09:55:14Z</time>
      </trkpt>
      <trkpt lat="39.21222" lon="-8.68244">
        <ele>12.15</ele>
        <time>2019-05-13T09:55:31Z</time>
      </trkpt>
      <trkpt lat="39.21237" lon="-8.68231">
        <ele>13.6</ele>
        <time>2019-05-13T09:55:46Z</time>
      </trkpt>
      <trkpt lat="39.21252" lon="-8.6822">
        <ele>12.15</ele>
        <time>2019-05-13T09:56:01Z</time>
      </trkpt>
      <trkpt lat="39.21272" lon="-8.68208">
        <ele>12.63</ele>
        <time>2019-05-13T09:56:19Z</time>
      </trkpt>
      <trkpt lat="39.2129" lon="-8.68206">
        <ele>13.6</ele>
        <time>2019-05-13T09:56:34Z</time>
      </trkpt>
      <trkpt lat="39.21308" lon="-8.68212">
        <ele>13.6</ele>
        <time>2019-05-13T09:56:49Z</time>
      </trkpt>
      <trkpt lat="39.2131" lon="-8.68214">
        <ele>13.6</ele>
        <time>2019-05-13T09:56:51Z</time>
      </trkpt>
      <trkpt lat="39.21317" lon="-8.68219">
        <ele>13.6</ele>
        <time>2019-05-13T09:56:57Z</time>
      </trkpt>
      <trkpt lat="39.21335" lon="-8.68231">
        <ele>13.12</ele>
        <time>2019-05-13T09:57:14Z</time>
      </trkpt>
      <trkpt lat="39.21351" lon="-8.68244">
        <ele>13.12</ele>
        <time>2019-05-13T09:57:30Z</time>
      </trkpt>
      <trkpt lat="39.21369" lon="-8.68256">
        <ele>12.63</ele>
        <time>2019-05-13T09:57:47Z</time>
      </trkpt>
      <trkpt lat="39.2138" lon="-8.68264">
        <ele>12.63</ele>
        <time>2019-05-13T09:57:57Z</time>
      </trkpt>
      <trkpt lat="39.21398" lon="-8.68277">
        <ele>12.63</ele>
        <time>2019-05-13T09:58:14Z</time>
      </trkpt>
      <trkpt lat="39.21406" lon="-8.68284">
        <ele>13.12</ele>
        <time>2019-05-13T09:58:30Z</time>
      </trkpt>
      <trkpt lat="39.21416" lon="-8.6829">
        <ele>13.12</ele>
        <time>2019-05-13T09:58:41Z</time>
      </trkpt>
      <trkpt lat="39.21422" lon="-8.68289">
        <ele>13.6</ele>
        <time>2019-05-13T09:58:45Z</time>
      </trkpt>
      <trkpt lat="39.21442" lon="-8.68288">
        <ele>13.12</ele>
        <time>2019-05-13T09:59:00Z</time>
      </trkpt>
      <trkpt lat="39.21458" lon="-8.68287">
        <ele>13.12</ele>
        <time>2019-05-13T09:59:14Z</time>
      </trkpt>
      <trkpt lat="39.21473" lon="-8.68288">
        <ele>14.08</ele>
        <time>2019-05-13T09:59:26Z</time>
      </trkpt>
      <trkpt lat="39.21485" lon="-8.68286">
        <ele>13.6</ele>
        <time>2019-05-13T09:59:39Z</time>
      </trkpt>
      <trkpt lat="39.21497" lon="-8.68287">
        <ele>13.12</ele>
        <time>2019-05-13T09:59:52Z</time>
      </trkpt>
      <trkpt lat="39.21514" lon="-8.68289">
        <ele>12.63</ele>
        <time>2019-05-13T10:00:06Z</time>
      </trkpt>
      <trkpt lat="39.21518" lon="-8.68289">
        <ele>13.6</ele>
        <time>2019-05-13T10:00:11Z</time>
      </trkpt>
      <trkpt lat="39.21524" lon="-8.6829">
        <ele>13.12</ele>
        <time>2019-05-13T10:00:16Z</time>
      </trkpt>
      <trkpt lat="39.21529" lon="-8.68291">
        <ele>14.08</ele>
        <time>2019-05-13T10:00:20Z</time>
      </trkpt>
      <trkpt lat="39.21546" lon="-8.68292">
        <ele>14.08</ele>
        <time>2019-05-13T10:00:33Z</time>
      </trkpt>
      <trkpt lat="39.2156" lon="-8.68295">
        <ele>14.08</ele>
        <time>2019-05-13T10:00:45Z</time>
      </trkpt>
      <trkpt lat="39.21566" lon="-8.68296">
        <ele>14.56</ele>
        <time>2019-05-13T10:00:51Z</time>
      </trkpt>
      <trkpt lat="39.2157" lon="-8.68298">
        <ele>14.56</ele>
        <time>2019-05-13T10:00:55Z</time>
      </trkpt>
      <trkpt lat="39.21587" lon="-8.68301">
        <ele>14.08</ele>
        <time>2019-05-13T10:01:10Z</time>
      </trkpt>
      <trkpt lat="39.21606" lon="-8.68305">
        <ele>13.6</ele>
        <time>2019-05-13T10:01:26Z</time>
      </trkpt>
      <trkpt lat="39.21617" lon="-8.68305">
        <ele>14.08</ele>
        <time>2019-05-13T10:01:38Z</time>
      </trkpt>
      <trkpt lat="39.21619" lon="-8.68308">
        <ele>14.08</ele>
        <time>2019-05-13T10:01:44Z</time>
      </trkpt>
      <trkpt lat="39.21635" lon="-8.6831">
        <ele>14.08</ele>
        <time>2019-05-13T10:01:57Z</time>
      </trkpt>
      <trkpt lat="39.21642" lon="-8.68309">
        <ele>14.08</ele>
        <time>2019-05-13T10:02:04Z</time>
      </trkpt>
      <trkpt lat="39.21658" lon="-8.68304">
        <ele>14.56</ele>
        <time>2019-05-13T10:02:19Z</time>
      </trkpt>
      <trkpt lat="39.21684" lon="-8.68295">
        <ele>15.04</ele>
        <time>2019-05-13T10:02:37Z</time>
      </trkpt>
      <trkpt lat="39.21706" lon="-8.68282">
        <ele>14.08</ele>
        <time>2019-05-13T10:02:56Z</time>
      </trkpt>
      <trkpt lat="39.21723" lon="-8.68267">
        <ele>14.56</ele>
        <time>2019-05-13T10:03:14Z</time>
      </trkpt>
      <trkpt lat="39.21743" lon="-8.68252">
        <ele>15.04</ele>
        <time>2019-05-13T10:03:33Z</time>
      </trkpt>
      <trkpt lat="39.21761" lon="-8.68242">
        <ele>15.52</ele>
        <time>2019-05-13T10:03:50Z</time>
      </trkpt>
      <trkpt lat="39.21777" lon="-8.68244">
        <ele>16</ele>
        <time>2019-05-13T10:04:04Z</time>
      </trkpt>
      <trkpt lat="39.2178" lon="-8.68246">
        <ele>15.52</ele>
        <time>2019-05-13T10:04:08Z</time>
      </trkpt>
      <trkpt lat="39.21787" lon="-8.6825">
        <ele>15.52</ele>
        <time>2019-05-13T10:04:15Z</time>
      </trkpt>
      <trkpt lat="39.21789" lon="-8.68251">
        <ele>15.52</ele>
        <time>2019-05-13T10:04:17Z</time>
      </trkpt>
      <trkpt lat="39.21791" lon="-8.68254">
        <ele>15.52</ele>
        <time>2019-05-13T10:04:20Z</time>
      </trkpt>
      <trkpt lat="39.21799" lon="-8.68263">
        <ele>15.52</ele>
        <time>2019-05-13T10:04:31Z</time>
      </trkpt>
      <trkpt lat="39.21807" lon="-8.6827">
        <ele>16.48</ele>
        <time>2019-05-13T10:04:42Z</time>
      </trkpt>
      <trkpt lat="39.21822" lon="-8.68277">
        <ele>16.48</ele>
        <time>2019-05-13T10:04:56Z</time>
      </trkpt>
      <trkpt lat="39.21832" lon="-8.68283">
        <ele>16</ele>
        <time>2019-05-13T10:05:05Z</time>
      </trkpt>
      <trkpt lat="39.21846" lon="-8.68294">
        <ele>16.96</ele>
        <time>2019-05-13T10:05:18Z</time>
      </trkpt>
      <trkpt lat="39.21861" lon="-8.68304">
        <ele>17.44</ele>
        <time>2019-05-13T10:05:32Z</time>
      </trkpt>
      <trkpt lat="39.21872" lon="-8.68309">
        <ele>17.92</ele>
        <time>2019-05-13T10:05:43Z</time>
      </trkpt>
      <trkpt lat="39.21889" lon="-8.68316">
        <ele>17.44</ele>
        <time>2019-05-13T10:05:56Z</time>
      </trkpt>
      <trkpt lat="39.21895" lon="-8.68318">
        <ele>18.4</ele>
        <time>2019-05-13T10:06:01Z</time>
      </trkpt>
      <trkpt lat="39.21919" lon="-8.68325">
        <ele>19.36</ele>
        <time>2019-05-13T10:06:15Z</time>
      </trkpt>
      <trkpt lat="39.21937" lon="-8.68324">
        <ele>19.36</ele>
        <time>2019-05-13T10:06:29Z</time>
      </trkpt>
      <trkpt lat="39.21949" lon="-8.68321">
        <ele>20.81</ele>
        <time>2019-05-13T10:06:40Z</time>
      </trkpt>
      <trkpt lat="39.21967" lon="-8.68313">
        <ele>21.29</ele>
        <time>2019-05-13T10:06:56Z</time>
      </trkpt>
      <trkpt lat="39.21982" lon="-8.68308">
        <ele>21.77</ele>
        <time>2019-05-13T10:07:10Z</time>
      </trkpt>
      <trkpt lat="39.21999" lon="-8.68305">
        <ele>23.21</ele>
        <time>2019-05-13T10:07:23Z</time>
      </trkpt>
      <trkpt lat="39.22014" lon="-8.68303">
        <ele>24.17</ele>
        <time>2019-05-13T10:07:36Z</time>
      </trkpt>
      <trkpt lat="39.22028" lon="-8.68302">
        <ele>24.17</ele>
        <time>2019-05-13T10:07:48Z</time>
      </trkpt>
      <trkpt lat="39.2203" lon="-8.68302">
        <ele>24.17</ele>
        <time>2019-05-13T10:07:50Z</time>
      </trkpt>
      <trkpt lat="39.22037" lon="-8.68302">
        <ele>24.65</ele>
        <time>2019-05-13T10:07:55Z</time>
      </trkpt>
      <trkpt lat="39.22052" lon="-8.68304">
        <ele>24.65</ele>
        <time>2019-05-13T10:08:08Z</time>
      </trkpt>
      <trkpt lat="39.22056" lon="-8.68304">
        <ele>25.13</ele>
        <time>2019-05-13T10:08:11Z</time>
      </trkpt>
      <trkpt lat="39.22063" lon="-8.68306">
        <ele>26.09</ele>
        <time>2019-05-13T10:08:19Z</time>
      </trkpt>
      <trkpt lat="39.22072" lon="-8.68309">
        <ele>26.09</ele>
        <time>2019-05-13T10:08:28Z</time>
      </trkpt>
      <trkpt lat="39.22084" lon="-8.68312">
        <ele>25.61</ele>
        <time>2019-05-13T10:08:39Z</time>
      </trkpt>
      <trkpt lat="39.221" lon="-8.68317">
        <ele>26.57</ele>
        <time>2019-05-13T10:08:51Z</time>
      </trkpt>
      <trkpt lat="39.22115" lon="-8.68323">
        <ele>28.02</ele>
        <time>2019-05-13T10:09:03Z</time>
      </trkpt>
      <trkpt lat="39.22123" lon="-8.68325">
        <ele>27.53</ele>
        <time>2019-05-13T10:09:08Z</time>
      </trkpt>
      <trkpt lat="39.22138" lon="-8.6833">
        <ele>28.5</ele>
        <time>2019-05-13T10:09:22Z</time>
      </trkpt>
      <trkpt lat="39.22152" lon="-8.68336">
        <ele>28.98</ele>
        <time>2019-05-13T10:09:35Z</time>
      </trkpt>
      <trkpt lat="39.22169" lon="-8.68345">
        <ele>30.42</ele>
        <time>2019-05-13T10:09:49Z</time>
      </trkpt>
      <trkpt lat="39.22175" lon="-8.68343">
        <ele>30.42</ele>
        <time>2019-05-13T10:10:04Z</time>
      </trkpt>
      <trkpt lat="39.2218" lon="-8.68344">
        <ele>31.38</ele>
        <time>2019-05-13T10:10:27Z</time>
      </trkpt>
      <trkpt lat="39.22197" lon="-8.68347">
        <ele>32.34</ele>
        <time>2019-05-13T10:10:41Z</time>
      </trkpt>
      <trkpt lat="39.22213" lon="-8.68344">
        <ele>33.3</ele>
        <time>2019-05-13T10:10:54Z</time>
      </trkpt>
      <trkpt lat="39.22227" lon="-8.68339">
        <ele>34.26</ele>
        <time>2019-05-13T10:11:07Z</time>
      </trkpt>
      <trkpt lat="39.22239" lon="-8.68334">
        <ele>35.23</ele>
        <time>2019-05-13T10:11:18Z</time>
      </trkpt>
      <trkpt lat="39.22249" lon="-8.68329">
        <ele>35.71</ele>
        <time>2019-05-13T10:11:27Z</time>
      </trkpt>
      <trkpt lat="39.2226" lon="-8.68324">
        <ele>36.67</ele>
        <time>2019-05-13T10:11:38Z</time>
      </trkpt>
      <trkpt lat="39.22271" lon="-8.68321">
        <ele>36.67</ele>
        <time>2019-05-13T10:11:48Z</time>
      </trkpt>
      <trkpt lat="39.22283" lon="-8.68312">
        <ele>37.63</ele>
        <time>2019-05-13T10:12:00Z</time>
      </trkpt>
      <trkpt lat="39.22294" lon="-8.68306">
        <ele>38.59</ele>
        <time>2019-05-13T10:12:12Z</time>
      </trkpt>
      <trkpt lat="39.22309" lon="-8.68298">
        <ele>38.59</ele>
        <time>2019-05-13T10:12:25Z</time>
      </trkpt>
      <trkpt lat="39.22314" lon="-8.68295">
        <ele>38.11</ele>
        <time>2019-05-13T10:12:30Z</time>
      </trkpt>
      <trkpt lat="39.2233" lon="-8.68287">
        <ele>40.03</ele>
        <time>2019-05-13T10:12:42Z</time>
      </trkpt>
      <trkpt lat="39.22346" lon="-8.68278">
        <ele>40.99</ele>
        <time>2019-05-13T10:12:56Z</time>
      </trkpt>
      <trkpt lat="39.22358" lon="-8.68274">
        <ele>41.47</ele>
        <time>2019-05-13T10:13:09Z</time>
      </trkpt>
      <trkpt lat="39.22372" lon="-8.68268">
        <ele>42.92</ele>
        <time>2019-05-13T10:13:22Z</time>
      </trkpt>
      <trkpt lat="39.22388" lon="-8.68262">
        <ele>44.36</ele>
        <time>2019-05-13T10:13:36Z</time>
      </trkpt>
      <trkpt lat="39.22401" lon="-8.68257">
        <ele>45.8</ele>
        <time>2019-05-13T10:13:48Z</time>
      </trkpt>
      <trkpt lat="39.22414" lon="-8.68252">
        <ele>46.76</ele>
        <time>2019-05-13T10:14:00Z</time>
      </trkpt>
      <trkpt lat="39.22418" lon="-8.68252">
        <ele>46.76</ele>
        <time>2019-05-13T10:14:04Z</time>
      </trkpt>
      <trkpt lat="39.22435" lon="-8.68248">
        <ele>48.2</ele>
        <time>2019-05-13T10:14:20Z</time>
      </trkpt>
      <trkpt lat="39.22447" lon="-8.68246">
        <ele>49.16</ele>
        <time>2019-05-13T10:14:31Z</time>
      </trkpt>
      <trkpt lat="39.22464" lon="-8.68246">
        <ele>49.16</ele>
        <time>2019-05-13T10:14:45Z</time>
      </trkpt>
      <trkpt lat="39.22481" lon="-8.68253">
        <ele>48.2</ele>
        <time>2019-05-13T10:14:59Z</time>
      </trkpt>
      <trkpt lat="39.22498" lon="-8.6826">
        <ele>48.2</ele>
        <time>2019-05-13T10:15:14Z</time>
      </trkpt>
      <trkpt lat="39.225" lon="-8.68261">
        <ele>48.2</ele>
        <time>2019-05-13T10:15:16Z</time>
      </trkpt>
      <trkpt lat="39.22499" lon="-8.68267">
        <ele>47.72</ele>
        <time>2019-05-13T10:15:28Z</time>
      </trkpt>
      <trkpt lat="39.225" lon="-8.68265">
        <ele>47.72</ele>
        <time>2019-05-13T10:15:43Z</time>
      </trkpt>
      <trkpt lat="39.225" lon="-8.68265">
        <ele>47.24</ele>
        <time>2019-05-13T10:16:05Z</time>
      </trkpt>
      <trkpt lat="39.225" lon="-8.68265">
        <ele>47.72</ele>
        <time>2019-05-13T10:16:24Z</time>
      </trkpt>
      <trkpt lat="39.225" lon="-8.68265">
        <ele>48.2</ele>
        <time>2019-05-13T10:16:40Z</time>
      </trkpt>
      <trkpt lat="39.225" lon="-8.68267">
        <ele>48.2</ele>
        <time>2019-05-13T10:17:08Z</time>
      </trkpt>
      <trkpt lat="39.22503" lon="-8.6827">
        <ele>47.72</ele>
        <time>2019-05-13T10:17:19Z</time>
      </trkpt>
      <trkpt lat="39.2251" lon="-8.68277">
        <ele>47.72</ele>
        <time>2019-05-13T10:17:36Z</time>
      </trkpt>
      <trkpt lat="39.22509" lon="-8.68281">
        <ele>48.2</ele>
        <time>2019-05-13T10:17:55Z</time>
      </trkpt>
      <trkpt lat="39.22509" lon="-8.68272">
        <ele>48.2</ele>
        <time>2019-05-13T10:18:27Z</time>
      </trkpt>
      <trkpt lat="39.2251" lon="-8.6827">
        <ele>47.72</ele>
        <time>2019-05-13T10:18:29Z</time>
      </trkpt>
      <trkpt lat="39.22511" lon="-8.68262">
        <ele>49.16</ele>
        <time>2019-05-13T10:18:35Z</time>
      </trkpt>
      <trkpt lat="39.22527" lon="-8.68262">
        <ele>49.65</ele>
        <time>2019-05-13T10:18:50Z</time>
      </trkpt>
      <trkpt lat="39.22545" lon="-8.68256">
        <ele>52.53</ele>
        <time>2019-05-13T10:19:04Z</time>
      </trkpt>
      <trkpt lat="39.22558" lon="-8.68252">
        <ele>52.53</ele>
        <time>2019-05-13T10:19:17Z</time>
      </trkpt>
      <trkpt lat="39.2257" lon="-8.6825">
        <ele>52.53</ele>
        <time>2019-05-13T10:19:28Z</time>
      </trkpt>
      <trkpt lat="39.22571" lon="-8.68249">
        <ele>53.49</ele>
        <time>2019-05-13T10:19:30Z</time>
      </trkpt>
      <trkpt lat="39.22588" lon="-8.68248">
        <ele>55.89</ele>
        <time>2019-05-13T10:19:45Z</time>
      </trkpt>
      <trkpt lat="39.22589" lon="-8.68248">
        <ele>55.89</ele>
        <time>2019-05-13T10:19:46Z</time>
      </trkpt>
      <trkpt lat="39.22595" lon="-8.68245">
        <ele>55.89</ele>
        <time>2019-05-13T10:19:52Z</time>
      </trkpt>
      <trkpt lat="39.22609" lon="-8.68243">
        <ele>57.34</ele>
        <time>2019-05-13T10:20:06Z</time>
      </trkpt>
      <trkpt lat="39.22619" lon="-8.6824">
        <ele>58.3</ele>
        <time>2019-05-13T10:20:15Z</time>
      </trkpt>
      <trkpt lat="39.22633" lon="-8.68237">
        <ele>59.26</ele>
        <time>2019-05-13T10:20:29Z</time>
      </trkpt>
      <trkpt lat="39.22648" lon="-8.68236">
        <ele>60.22</ele>
        <time>2019-05-13T10:20:41Z</time>
      </trkpt>
      <trkpt lat="39.22664" lon="-8.68234">
        <ele>62.14</ele>
        <time>2019-05-13T10:20:55Z</time>
      </trkpt>
      <trkpt lat="39.22677" lon="-8.68234">
        <ele>62.62</ele>
        <time>2019-05-13T10:21:06Z</time>
      </trkpt>
      <trkpt lat="39.2269" lon="-8.68243">
        <ele>61.66</ele>
        <time>2019-05-13T10:21:19Z</time>
      </trkpt>
      <trkpt lat="39.22694" lon="-8.68247">
        <ele>61.66</ele>
        <time>2019-05-13T10:21:23Z</time>
      </trkpt>
      <trkpt lat="39.22707" lon="-8.6826">
        <ele>63.1</ele>
        <time>2019-05-13T10:21:37Z</time>
      </trkpt>
      <trkpt lat="39.22721" lon="-8.68273">
        <ele>62.62</ele>
        <time>2019-05-13T10:21:51Z</time>
      </trkpt>
      <trkpt lat="39.22731" lon="-8.68287">
        <ele>62.14</ele>
        <time>2019-05-13T10:22:05Z</time>
      </trkpt>
      <trkpt lat="39.22735" lon="-8.68291">
        <ele>61.66</ele>
        <time>2019-05-13T10:22:09Z</time>
      </trkpt>
      <trkpt lat="39.2274" lon="-8.68296">
        <ele>62.14</ele>
        <time>2019-05-13T10:22:15Z</time>
      </trkpt>
      <trkpt lat="39.2276" lon="-8.68312">
        <ele>63.58</ele>
        <time>2019-05-13T10:22:31Z</time>
      </trkpt>
      <trkpt lat="39.22771" lon="-8.68323">
        <ele>64.55</ele>
        <time>2019-05-13T10:22:44Z</time>
      </trkpt>
      <trkpt lat="39.22786" lon="-8.68335">
        <ele>65.03</ele>
        <time>2019-05-13T10:22:57Z</time>
      </trkpt>
      <trkpt lat="39.228" lon="-8.68344">
        <ele>65.99</ele>
        <time>2019-05-13T10:23:10Z</time>
      </trkpt>
      <trkpt lat="39.22809" lon="-8.6835">
        <ele>65.99</ele>
        <time>2019-05-13T10:23:18Z</time>
      </trkpt>
      <trkpt lat="39.22815" lon="-8.68354">
        <ele>66.95</ele>
        <time>2019-05-13T10:23:24Z</time>
      </trkpt>
      <trkpt lat="39.22816" lon="-8.68357">
        <ele>66.95</ele>
        <time>2019-05-13T10:23:30Z</time>
      </trkpt>
      <trkpt lat="39.22832" lon="-8.68369">
        <ele>67.91</ele>
        <time>2019-05-13T10:23:44Z</time>
      </trkpt>
      <trkpt lat="39.22845" lon="-8.68379">
        <ele>68.87</ele>
        <time>2019-05-13T10:23:57Z</time>
      </trkpt>
      <trkpt lat="39.22852" lon="-8.68391">
        <ele>68.87</ele>
        <time>2019-05-13T10:24:07Z</time>
      </trkpt>
      <trkpt lat="39.2286" lon="-8.68401">
        <ele>70.31</ele>
        <time>2019-05-13T10:24:17Z</time>
      </trkpt>
      <trkpt lat="39.22869" lon="-8.68413">
        <ele>71.76</ele>
        <time>2019-05-13T10:24:29Z</time>
      </trkpt>
      <trkpt lat="39.2287" lon="-8.68417">
        <ele>72.72</ele>
        <time>2019-05-13T10:24:33Z</time>
      </trkpt>
      <trkpt lat="39.22873" lon="-8.68422">
        <ele>72.72</ele>
        <time>2019-05-13T10:24:37Z</time>
      </trkpt>
      <trkpt lat="39.22877" lon="-8.6843">
        <ele>72.72</ele>
        <time>2019-05-13T10:24:44Z</time>
      </trkpt>
      <trkpt lat="39.22884" lon="-8.68434">
        <ele>74.16</ele>
        <time>2019-05-13T10:24:54Z</time>
      </trkpt>
      <trkpt lat="39.22887" lon="-8.68439">
        <ele>74.64</ele>
        <time>2019-05-13T10:24:58Z</time>
      </trkpt>
      <trkpt lat="39.22888" lon="-8.68441">
        <ele>74.16</ele>
        <time>2019-05-13T10:25:00Z</time>
      </trkpt>
      <trkpt lat="39.2289" lon="-8.68445">
        <ele>74.64</ele>
        <time>2019-05-13T10:25:03Z</time>
      </trkpt>
      <trkpt lat="39.22896" lon="-8.68454">
        <ele>76.56</ele>
        <time>2019-05-13T10:25:13Z</time>
      </trkpt>
      <trkpt lat="39.22898" lon="-8.68459">
        <ele>77.04</ele>
        <time>2019-05-13T10:25:17Z</time>
      </trkpt>
      <trkpt lat="39.22907" lon="-8.68473">
        <ele>78</ele>
        <time>2019-05-13T10:25:29Z</time>
      </trkpt>
      <trkpt lat="39.22907" lon="-8.6848">
        <ele>78</ele>
        <time>2019-05-13T10:25:34Z</time>
      </trkpt>
      <trkpt lat="39.22907" lon="-8.68485">
        <ele>78</ele>
        <time>2019-05-13T10:25:39Z</time>
      </trkpt>
      <trkpt lat="39.22908" lon="-8.68489">
        <ele>78.97</ele>
        <time>2019-05-13T10:25:49Z</time>
      </trkpt>
      <trkpt lat="39.22913" lon="-8.68494">
        <ele>79.45</ele>
        <time>2019-05-13T10:25:55Z</time>
      </trkpt>
      <trkpt lat="39.22923" lon="-8.68506">
        <ele>80.41</ele>
        <time>2019-05-13T10:26:06Z</time>
      </trkpt>
      <trkpt lat="39.22929" lon="-8.68518">
        <ele>81.37</ele>
        <time>2019-05-13T10:26:19Z</time>
      </trkpt>
      <trkpt lat="39.2294" lon="-8.6853">
        <ele>83.29</ele>
        <time>2019-05-13T10:26:33Z</time>
      </trkpt>
      <trkpt lat="39.22945" lon="-8.68536">
        <ele>84.25</ele>
        <time>2019-05-13T10:26:41Z</time>
      </trkpt>
      <trkpt lat="39.2295" lon="-8.68542">
        <ele>85.21</ele>
        <time>2019-05-13T10:26:49Z</time>
      </trkpt>
      <trkpt lat="39.22961" lon="-8.68549">
        <ele>86.66</ele>
        <time>2019-05-13T10:26:59Z</time>
      </trkpt>
      <trkpt lat="39.22977" lon="-8.68555">
        <ele>88.1</ele>
        <time>2019-05-13T10:27:13Z</time>
      </trkpt>
      <trkpt lat="39.22985" lon="-8.68556">
        <ele>89.06</ele>
        <time>2019-05-13T10:27:26Z</time>
      </trkpt>
      <trkpt lat="39.22993" lon="-8.68561">
        <ele>90.02</ele>
        <time>2019-05-13T10:27:48Z</time>
      </trkpt>
      <trkpt lat="39.23006" lon="-8.6856">
        <ele>91.46</ele>
        <time>2019-05-13T10:28:01Z</time>
      </trkpt>
      <trkpt lat="39.23011" lon="-8.68558">
        <ele>91.46</ele>
        <time>2019-05-13T10:28:06Z</time>
      </trkpt>
      <trkpt lat="39.23028" lon="-8.68555">
        <ele>93.87</ele>
        <time>2019-05-13T10:28:21Z</time>
      </trkpt>
      <trkpt lat="39.23044" lon="-8.68553">
        <ele>95.79</ele>
        <time>2019-05-13T10:28:36Z</time>
      </trkpt>
      <trkpt lat="39.23048" lon="-8.68553">
        <ele>95.79</ele>
        <time>2019-05-13T10:28:40Z</time>
      </trkpt>
      <trkpt lat="39.2306" lon="-8.68553">
        <ele>96.27</ele>
        <time>2019-05-13T10:28:54Z</time>
      </trkpt>
      <trkpt lat="39.23061" lon="-8.68553">
        <ele>96.27</ele>
        <time>2019-05-13T10:28:55Z</time>
      </trkpt>
      <trkpt lat="39.23067" lon="-8.68557">
        <ele>96.75</ele>
        <time>2019-05-13T10:29:01Z</time>
      </trkpt>
      <trkpt lat="39.23079" lon="-8.68568">
        <ele>98.67</ele>
        <time>2019-05-13T10:29:13Z</time>
      </trkpt>
      <trkpt lat="39.23091" lon="-8.6858">
        <ele>99.63</ele>
        <time>2019-05-13T10:29:26Z</time>
      </trkpt>
      <trkpt lat="39.23101" lon="-8.68591">
        <ele>100.6</ele>
        <time>2019-05-13T10:29:39Z</time>
      </trkpt>
      <trkpt lat="39.23104" lon="-8.68594">
        <ele>101.08</ele>
        <time>2019-05-13T10:29:44Z</time>
      </trkpt>
      <trkpt lat="39.23112" lon="-8.68606">
        <ele>102.04</ele>
        <time>2019-05-13T10:29:55Z</time>
      </trkpt>
      <trkpt lat="39.23121" lon="-8.68616">
        <ele>103</ele>
        <time>2019-05-13T10:30:09Z</time>
      </trkpt>
      <trkpt lat="39.23126" lon="-8.68619">
        <ele>103.48</ele>
        <time>2019-05-13T10:30:20Z</time>
      </trkpt>
      <trkpt lat="39.23123" lon="-8.68628">
        <ele>103.48</ele>
        <time>2019-05-13T10:30:41Z</time>
      </trkpt>
      <trkpt lat="39.23119" lon="-8.68635">
        <ele>102.04</ele>
        <time>2019-05-13T10:31:02Z</time>
      </trkpt>
      <trkpt lat="39.23116" lon="-8.68636">
        <ele>103</ele>
        <time>2019-05-13T10:31:24Z</time>
      </trkpt>
      <trkpt lat="39.23119" lon="-8.68635">
        <ele>102.52</ele>
        <time>2019-05-13T10:31:41Z</time>
      </trkpt>
      <trkpt lat="39.23132" lon="-8.68626">
        <ele>103</ele>
        <time>2019-05-13T10:31:53Z</time>
      </trkpt>
      <trkpt lat="39.23141" lon="-8.68618">
        <ele>103.96</ele>
        <time>2019-05-13T10:32:04Z</time>
      </trkpt>
      <trkpt lat="39.23145" lon="-8.68628">
        <ele>103</ele>
        <time>2019-05-13T10:32:24Z</time>
      </trkpt>
      <trkpt lat="39.23149" lon="-8.6863">
        <ele>103.48</ele>
        <time>2019-05-13T10:32:46Z</time>
      </trkpt>
      <trkpt lat="39.23157" lon="-8.68624">
        <ele>103.96</ele>
        <time>2019-05-13T10:33:00Z</time>
      </trkpt>
      <trkpt lat="39.23161" lon="-8.68621">
        <ele>103.96</ele>
        <time>2019-05-13T10:33:04Z</time>
      </trkpt>
      <trkpt lat="39.23172" lon="-8.68611">
        <ele>103.96</ele>
        <time>2019-05-13T10:33:15Z</time>
      </trkpt>
      <trkpt lat="39.23177" lon="-8.68608">
        <ele>104.44</ele>
        <time>2019-05-13T10:33:27Z</time>
      </trkpt>
      <trkpt lat="39.23181" lon="-8.68606">
        <ele>104.92</ele>
        <time>2019-05-13T10:33:31Z</time>
      </trkpt>
      <trkpt lat="39.23189" lon="-8.68603">
        <ele>104.92</ele>
        <time>2019-05-13T10:33:44Z</time>
      </trkpt>
      <trkpt lat="39.232" lon="-8.68598">
        <ele>104.92</ele>
        <time>2019-05-13T10:33:57Z</time>
      </trkpt>
      <trkpt lat="39.23209" lon="-8.68596">
        <ele>104.92</ele>
        <time>2019-05-13T10:34:05Z</time>
      </trkpt>
      <trkpt lat="39.23224" lon="-8.68581">
        <ele>104.44</ele>
        <time>2019-05-13T10:34:20Z</time>
      </trkpt>
      <trkpt lat="39.23227" lon="-8.68582">
        <ele>105.4</ele>
        <time>2019-05-13T10:34:24Z</time>
      </trkpt>
      <trkpt lat="39.23233" lon="-8.68579">
        <ele>104.92</ele>
        <time>2019-05-13T10:34:33Z</time>
      </trkpt>
      <trkpt lat="39.23257" lon="-8.68582">
        <ele>104.92</ele>
        <time>2019-05-13T10:34:50Z</time>
      </trkpt>
      <trkpt lat="39.23272" lon="-8.68581">
        <ele>104.44</ele>
        <time>2019-05-13T10:35:04Z</time>
      </trkpt>
      <trkpt lat="39.23288" lon="-8.68574">
        <ele>102.04</ele>
        <time>2019-05-13T10:35:16Z</time>
      </trkpt>
      <trkpt lat="39.23289" lon="-8.68573">
        <ele>102.52</ele>
        <time>2019-05-13T10:35:17Z</time>
      </trkpt>
      <trkpt lat="39.23296" lon="-8.68572">
        <ele>104.92</ele>
        <time>2019-05-13T10:35:23Z</time>
      </trkpt>
      <trkpt lat="39.2331" lon="-8.6857">
        <ele>103.96</ele>
        <time>2019-05-13T10:35:37Z</time>
      </trkpt>
      <trkpt lat="39.23325" lon="-8.68566">
        <ele>105.4</ele>
        <time>2019-05-13T10:35:50Z</time>
      </trkpt>
      <trkpt lat="39.2334" lon="-8.68572">
        <ele>104.44</ele>
        <time>2019-05-13T10:36:01Z</time>
      </trkpt>
      <trkpt lat="39.23354" lon="-8.68584">
        <ele>104.92</ele>
        <time>2019-05-13T10:36:14Z</time>
      </trkpt>
      <trkpt lat="39.2335" lon="-8.68588">
        <ele>104.92</ele>
        <time>2019-05-13T10:36:27Z</time>
      </trkpt>
      <trkpt lat="39.23343" lon="-8.68596">
        <ele>105.4</ele>
        <time>2019-05-13T10:36:36Z</time>
      </trkpt>
      <trkpt lat="39.23331" lon="-8.68605">
        <ele>107.32</ele>
        <time>2019-05-13T10:36:48Z</time>
      </trkpt>
      <trkpt lat="39.23322" lon="-8.68612">
        <ele>107.81</ele>
        <time>2019-05-13T10:36:57Z</time>
      </trkpt>
      <trkpt lat="39.23316" lon="-8.68616">
        <ele>107.32</ele>
        <time>2019-05-13T10:37:09Z</time>
      </trkpt>
      <trkpt lat="39.23309" lon="-8.68619">
        <ele>107.81</ele>
        <time>2019-05-13T10:37:20Z</time>
      </trkpt>
      <trkpt lat="39.23312" lon="-8.68629">
        <ele>107.32</ele>
        <time>2019-05-13T10:37:26Z</time>
      </trkpt>
      <trkpt lat="39.23316" lon="-8.68646">
        <ele>105.88</ele>
        <time>2019-05-13T10:37:40Z</time>
      </trkpt>
      <trkpt lat="39.23318" lon="-8.68647">
        <ele>106.36</ele>
        <time>2019-05-13T10:37:44Z</time>
      </trkpt>
      <trkpt lat="39.23318" lon="-8.68645">
        <ele>106.36</ele>
        <time>2019-05-13T10:37:46Z</time>
      </trkpt>
      <trkpt lat="39.23329" lon="-8.68656">
        <ele>107.32</ele>
        <time>2019-05-13T10:37:59Z</time>
      </trkpt>
      <trkpt lat="39.23344" lon="-8.68675">
        <ele>108.29</ele>
        <time>2019-05-13T10:38:15Z</time>
      </trkpt>
      <trkpt lat="39.23351" lon="-8.68692">
        <ele>108.77</ele>
        <time>2019-05-13T10:38:27Z</time>
      </trkpt>
      <trkpt lat="39.23351" lon="-8.68696">
        <ele>108.77</ele>
        <time>2019-05-13T10:38:32Z</time>
      </trkpt>
      <trkpt lat="39.2335" lon="-8.68713">
        <ele>108.29</ele>
        <time>2019-05-13T10:38:43Z</time>
      </trkpt>
      <trkpt lat="39.23347" lon="-8.68725">
        <ele>108.77</ele>
        <time>2019-05-13T10:38:54Z</time>
      </trkpt>
      <trkpt lat="39.23344" lon="-8.68738">
        <ele>108.29</ele>
        <time>2019-05-13T10:39:05Z</time>
      </trkpt>
      <trkpt lat="39.23337" lon="-8.68754">
        <ele>107.32</ele>
        <time>2019-05-13T10:39:18Z</time>
      </trkpt>
      <trkpt lat="39.23332" lon="-8.68771">
        <ele>106.84</ele>
        <time>2019-05-13T10:39:32Z</time>
      </trkpt>
      <trkpt lat="39.23332" lon="-8.68772">
        <ele>107.32</ele>
        <time>2019-05-13T10:39:34Z</time>
      </trkpt>
      <trkpt lat="39.23337" lon="-8.68791">
        <ele>107.32</ele>
        <time>2019-05-13T10:39:44Z</time>
      </trkpt>
      <trkpt lat="39.23335" lon="-8.68811">
        <ele>106.36</ele>
        <time>2019-05-13T10:39:58Z</time>
      </trkpt>
      <trkpt lat="39.23334" lon="-8.68813">
        <ele>106.84</ele>
        <time>2019-05-13T10:40:00Z</time>
      </trkpt>
      <trkpt lat="39.23327" lon="-8.68823">
        <ele>106.36</ele>
        <time>2019-05-13T10:40:12Z</time>
      </trkpt>
      <trkpt lat="39.23323" lon="-8.68836">
        <ele>105.88</ele>
        <time>2019-05-13T10:40:22Z</time>
      </trkpt>
      <trkpt lat="39.23323" lon="-8.68838">
        <ele>105.88</ele>
        <time>2019-05-13T10:40:23Z</time>
      </trkpt>
      <trkpt lat="39.23318" lon="-8.68849">
        <ele>105.88</ele>
        <time>2019-05-13T10:40:31Z</time>
      </trkpt>
      <trkpt lat="39.23311" lon="-8.68866">
        <ele>105.4</ele>
        <time>2019-05-13T10:40:44Z</time>
      </trkpt>
      <trkpt lat="39.2331" lon="-8.68871">
        <ele>105.4</ele>
        <time>2019-05-13T10:40:48Z</time>
      </trkpt>
      <trkpt lat="39.23312" lon="-8.68887">
        <ele>105.4</ele>
        <time>2019-05-13T10:41:00Z</time>
      </trkpt>
      <trkpt lat="39.23309" lon="-8.68902">
        <ele>104.92</ele>
        <time>2019-05-13T10:41:10Z</time>
      </trkpt>
      <trkpt lat="39.23308" lon="-8.68917">
        <ele>104.44</ele>
        <time>2019-05-13T10:41:22Z</time>
      </trkpt>
      <trkpt lat="39.23311" lon="-8.68936">
        <ele>104.44</ele>
        <time>2019-05-13T10:41:33Z</time>
      </trkpt>
      <trkpt lat="39.23307" lon="-8.68946">
        <ele>103.48</ele>
        <time>2019-05-13T10:41:44Z</time>
      </trkpt>
      <trkpt lat="39.23305" lon="-8.68968">
        <ele>103.48</ele>
        <time>2019-05-13T10:41:58Z</time>
      </trkpt>
      <trkpt lat="39.23304" lon="-8.68989">
        <ele>103.96</ele>
        <time>2019-05-13T10:42:09Z</time>
      </trkpt>
      <trkpt lat="39.23303" lon="-8.68994">
        <ele>103.96</ele>
        <time>2019-05-13T10:42:13Z</time>
      </trkpt>
      <trkpt lat="39.23305" lon="-8.69003">
        <ele>103.48</ele>
        <time>2019-05-13T10:42:24Z</time>
      </trkpt>
      <trkpt lat="39.23303" lon="-8.69008">
        <ele>103.96</ele>
        <time>2019-05-13T10:42:36Z</time>
      </trkpt>
      <trkpt lat="39.23305" lon="-8.6901">
        <ele>103.48</ele>
        <time>2019-05-13T10:42:39Z</time>
      </trkpt>
      <trkpt lat="39.23312" lon="-8.69014">
        <ele>103</ele>
        <time>2019-05-13T10:42:45Z</time>
      </trkpt>
      <trkpt lat="39.23321" lon="-8.69015">
        <ele>102.52</ele>
        <time>2019-05-13T10:43:00Z</time>
      </trkpt>
      <trkpt lat="39.23325" lon="-8.69015">
        <ele>102.52</ele>
        <time>2019-05-13T10:43:18Z</time>
      </trkpt>
      <trkpt lat="39.23325" lon="-8.69016">
        <ele>103</ele>
        <time>2019-05-13T10:43:33Z</time>
      </trkpt>
      <trkpt lat="39.23324" lon="-8.69017">
        <ele>103</ele>
        <time>2019-05-13T10:43:51Z</time>
      </trkpt>
      <trkpt lat="39.23326" lon="-8.69016">
        <ele>102.52</ele>
        <time>2019-05-13T10:44:13Z</time>
      </trkpt>
      <trkpt lat="39.23331" lon="-8.69026">
        <ele>102.52</ele>
        <time>2019-05-13T10:44:30Z</time>
      </trkpt>
      <trkpt lat="39.23327" lon="-8.69029">
        <ele>103</ele>
        <time>2019-05-13T10:44:56Z</time>
      </trkpt>
      <trkpt lat="39.23326" lon="-8.69027">
        <ele>102.52</ele>
        <time>2019-05-13T10:45:16Z</time>
      </trkpt>
      <trkpt lat="39.23327" lon="-8.69021">
        <ele>103</ele>
        <time>2019-05-13T10:45:46Z</time>
      </trkpt>
      <trkpt lat="39.23328" lon="-8.6902">
        <ele>103</ele>
        <time>2019-05-13T10:46:19Z</time>
      </trkpt>
      <trkpt lat="39.23323" lon="-8.69016">
        <ele>103</ele>
        <time>2019-05-13T10:46:44Z</time>
      </trkpt>
      <trkpt lat="39.23329" lon="-8.69023">
        <ele>102.52</ele>
        <time>2019-05-13T10:47:14Z</time>
      </trkpt>
      <trkpt lat="39.23325" lon="-8.69027">
        <ele>102.04</ele>
        <time>2019-05-13T10:47:41Z</time>
      </trkpt>
      <trkpt lat="39.23331" lon="-8.69032">
        <ele>102.04</ele>
        <time>2019-05-13T10:48:26Z</time>
      </trkpt>
      <trkpt lat="39.23332" lon="-8.6903">
        <ele>102.52</ele>
        <time>2019-05-13T10:49:07Z</time>
      </trkpt>
      <trkpt lat="39.2333" lon="-8.69032">
        <ele>103</ele>
        <time>2019-05-13T10:49:50Z</time>
      </trkpt>
      <trkpt lat="39.23325" lon="-8.69032">
        <ele>102.04</ele>
        <time>2019-05-13T10:50:34Z</time>
      </trkpt>
      <trkpt lat="39.2333" lon="-8.69031">
        <ele>102.04</ele>
        <time>2019-05-13T10:51:16Z</time>
      </trkpt>
      <trkpt lat="39.23326" lon="-8.69027">
        <ele>101.56</ele>
        <time>2019-05-13T10:51:48Z</time>
      </trkpt>
      <trkpt lat="39.2334" lon="-8.69031">
        <ele>101.56</ele>
        <time>2019-05-13T10:52:22Z</time>
      </trkpt>
      <trkpt lat="39.23341" lon="-8.69031">
        <ele>102.04</ele>
        <time>2019-05-13T10:52:59Z</time>
      </trkpt>
      <trkpt lat="39.23343" lon="-8.69033">
        <ele>102.52</ele>
        <time>2019-05-13T10:53:43Z</time>
      </trkpt>
      <trkpt lat="39.23338" lon="-8.69035">
        <ele>102.52</ele>
        <time>2019-05-13T10:54:26Z</time>
      </trkpt>
      <trkpt lat="39.23333" lon="-8.69032">
        <ele>102.52</ele>
        <time>2019-05-13T10:54:41Z</time>
      </trkpt>
      <trkpt lat="39.2332" lon="-8.69023">
        <ele>102.52</ele>
        <time>2019-05-13T10:55:12Z</time>
      </trkpt>
      <trkpt lat="39.23321" lon="-8.69023">
        <ele>102.52</ele>
        <time>2019-05-13T10:56:01Z</time>
      </trkpt>
      <trkpt lat="39.23322" lon="-8.69026">
        <ele>102.04</ele>
        <time>2019-05-13T10:56:49Z</time>
      </trkpt>
      <trkpt lat="39.23322" lon="-8.69023">
        <ele>102.52</ele>
        <time>2019-05-13T10:57:34Z</time>
      </trkpt>
      <trkpt lat="39.23321" lon="-8.69022">
        <ele>102.52</ele>
        <time>2019-05-13T10:58:25Z</time>
      </trkpt>
      <trkpt lat="39.23324" lon="-8.69023">
        <ele>103</ele>
        <time>2019-05-13T10:59:18Z</time>
      </trkpt>
      <trkpt lat="39.23322" lon="-8.69022">
        <ele>104.44</ele>
        <time>2019-05-13T10:59:47Z</time>
      </trkpt>
    </trkseg>
  </trk>
</gpx>